<?xml version="1.0" encoding="UTF-8" standalone="no" ?>
<gpx xmlns="http://www.topografix.com/GPX/1/1" xmlns:xsi="http://www.w3.org/2001/XMLSchema-instance" xsi:schemaLocation="http://www.topografix.com/GPX/1/1 http://www.topografix.com/GPX/1/1/gpx.xsd" version="1.1" creator="VisuGPX - https://www.visugpx.com">
  <metadata>
    <name>Cours-de-Pile</name>
    <desc><![CDATA[Rando Cours de Pile (10 km)
Départ : parking de l'église. Attention,  parcours non fléché.
Rando agréable avec toutes sortes de sentiers mais également quelques chemins goudronnés.
A faire plutôt par temps sec, quelques endroits pouvant être particulièrement boueux.]]></desc>
  </metadata>
  <trk>
    <name><![CDATA[Cours-de-Pile]]></name>
    <trkseg>
      <trkpt lat="44.84134" lon="0.54569">
        <ele>95</ele>
        <time>2021-10-12T12:00:37.968Z</time>
      </trkpt>
      <trkpt lat="44.84134" lon="0.54569">
        <ele>95</ele>
        <time>2021-10-12T12:00:38.013Z</time>
      </trkpt>
      <trkpt lat="44.84125" lon="0.54572">
        <ele>95</ele>
        <time>2021-10-12T12:01:05.018Z</time>
      </trkpt>
      <trkpt lat="44.84116" lon="0.54579">
        <ele>95</ele>
        <time>2021-10-12T12:01:12.018Z</time>
      </trkpt>
      <trkpt lat="44.84107" lon="0.54583">
        <ele>94</ele>
        <time>2021-10-12T12:01:19.020Z</time>
      </trkpt>
      <trkpt lat="44.84098" lon="0.54585">
        <ele>93</ele>
        <time>2021-10-12T12:01:26.016Z</time>
      </trkpt>
      <trkpt lat="44.84088" lon="0.54589">
        <ele>91</ele>
        <time>2021-10-12T12:01:35.019Z</time>
      </trkpt>
      <trkpt lat="44.84078" lon="0.54592">
        <ele>90</ele>
        <time>2021-10-12T12:01:43.024Z</time>
      </trkpt>
      <trkpt lat="44.84068" lon="0.54595">
        <ele>89</ele>
        <time>2021-10-12T12:01:50.029Z</time>
      </trkpt>
      <trkpt lat="44.84059" lon="0.546">
        <ele>89</ele>
        <time>2021-10-12T12:01:56.022Z</time>
      </trkpt>
      <trkpt lat="44.84049" lon="0.54603">
        <ele>89</ele>
        <time>2021-10-12T12:02:02.020Z</time>
      </trkpt>
      <trkpt lat="44.8404" lon="0.54603">
        <ele>90</ele>
        <time>2021-10-12T12:02:08.015Z</time>
      </trkpt>
      <trkpt lat="44.8403" lon="0.54604">
        <ele>91</ele>
        <time>2021-10-12T12:02:16.024Z</time>
      </trkpt>
      <trkpt lat="44.84021" lon="0.54607">
        <ele>91</ele>
        <time>2021-10-12T12:02:23.026Z</time>
      </trkpt>
      <trkpt lat="44.84011" lon="0.54608">
        <ele>92</ele>
        <time>2021-10-12T12:02:29.018Z</time>
      </trkpt>
      <trkpt lat="44.84001" lon="0.54608">
        <ele>92</ele>
        <time>2021-10-12T12:02:37.023Z</time>
      </trkpt>
      <trkpt lat="44.83991" lon="0.54609">
        <ele>92</ele>
        <time>2021-10-12T12:02:44.026Z</time>
      </trkpt>
      <trkpt lat="44.83981" lon="0.5461">
        <ele>91</ele>
        <time>2021-10-12T12:02:51.034Z</time>
      </trkpt>
      <trkpt lat="44.83972" lon="0.54612">
        <ele>90</ele>
        <time>2021-10-12T12:02:58.026Z</time>
      </trkpt>
      <trkpt lat="44.83962" lon="0.54613">
        <ele>89</ele>
        <time>2021-10-12T12:03:04.019Z</time>
      </trkpt>
      <trkpt lat="44.83953" lon="0.54615">
        <ele>89</ele>
        <time>2021-10-12T12:03:10.022Z</time>
      </trkpt>
      <trkpt lat="44.83943" lon="0.54617">
        <ele>88</ele>
        <time>2021-10-12T12:03:17.022Z</time>
      </trkpt>
      <trkpt lat="44.83933" lon="0.54619">
        <ele>88</ele>
        <time>2021-10-12T12:03:24.025Z</time>
      </trkpt>
      <trkpt lat="44.83923" lon="0.54621">
        <ele>88</ele>
        <time>2021-10-12T12:03:31.073Z</time>
      </trkpt>
      <trkpt lat="44.83912" lon="0.54622">
        <ele>88</ele>
        <time>2021-10-12T12:03:38.020Z</time>
      </trkpt>
      <trkpt lat="44.83903" lon="0.54623">
        <ele>89</ele>
        <time>2021-10-12T12:03:45.025Z</time>
      </trkpt>
      <trkpt lat="44.83894" lon="0.54624">
        <ele>89</ele>
        <time>2021-10-12T12:03:52.026Z</time>
      </trkpt>
      <trkpt lat="44.83883" lon="0.54627">
        <ele>89</ele>
        <time>2021-10-12T12:03:59.021Z</time>
      </trkpt>
      <trkpt lat="44.83874" lon="0.54628">
        <ele>89</ele>
        <time>2021-10-12T12:04:05.025Z</time>
      </trkpt>
      <trkpt lat="44.83864" lon="0.54628">
        <ele>89</ele>
        <time>2021-10-12T12:04:11.026Z</time>
      </trkpt>
      <trkpt lat="44.83854" lon="0.5463">
        <ele>89</ele>
        <time>2021-10-12T12:04:18.024Z</time>
      </trkpt>
      <trkpt lat="44.83845" lon="0.54632">
        <ele>89</ele>
        <time>2021-10-12T12:04:25.024Z</time>
      </trkpt>
      <trkpt lat="44.83836" lon="0.54634">
        <ele>89</ele>
        <time>2021-10-12T12:04:32.027Z</time>
      </trkpt>
      <trkpt lat="44.83827" lon="0.54636">
        <ele>88</ele>
        <time>2021-10-12T12:04:40.066Z</time>
      </trkpt>
      <trkpt lat="44.83817" lon="0.54635">
        <ele>88</ele>
        <time>2021-10-12T12:04:47.023Z</time>
      </trkpt>
      <trkpt lat="44.83814" lon="0.54636">
        <ele>88</ele>
        <time>2021-10-12T12:05:09.025Z</time>
      </trkpt>
      <trkpt lat="44.83814" lon="0.54636">
        <ele>88</ele>
        <time>2021-10-12T12:05:19.025Z</time>
      </trkpt>
      <trkpt lat="44.83811" lon="0.5464">
        <ele>88</ele>
        <time>2021-10-12T12:05:20.023Z</time>
      </trkpt>
      <trkpt lat="44.83812" lon="0.54655">
        <ele>89</ele>
        <time>2021-10-12T12:05:32.023Z</time>
      </trkpt>
      <trkpt lat="44.83813" lon="0.54668">
        <ele>89</ele>
        <time>2021-10-12T12:05:39.069Z</time>
      </trkpt>
      <trkpt lat="44.83813" lon="0.54681">
        <ele>89</ele>
        <time>2021-10-12T12:05:46.022Z</time>
      </trkpt>
      <trkpt lat="44.83814" lon="0.54695">
        <ele>90</ele>
        <time>2021-10-12T12:05:54.024Z</time>
      </trkpt>
      <trkpt lat="44.83815" lon="0.54709">
        <ele>90</ele>
        <time>2021-10-12T12:06:01.024Z</time>
      </trkpt>
      <trkpt lat="44.83818" lon="0.54722">
        <ele>90</ele>
        <time>2021-10-12T12:06:08.025Z</time>
      </trkpt>
      <trkpt lat="44.83819" lon="0.54736">
        <ele>91</ele>
        <time>2021-10-12T12:06:16.026Z</time>
      </trkpt>
      <trkpt lat="44.83821" lon="0.5475">
        <ele>91</ele>
        <time>2021-10-12T12:06:23.019Z</time>
      </trkpt>
      <trkpt lat="44.83823" lon="0.54763">
        <ele>91</ele>
        <time>2021-10-12T12:06:30.024Z</time>
      </trkpt>
      <trkpt lat="44.83826" lon="0.54777">
        <ele>91</ele>
        <time>2021-10-12T12:06:39.026Z</time>
      </trkpt>
      <trkpt lat="44.83828" lon="0.54791">
        <ele>92</ele>
        <time>2021-10-12T12:06:47.024Z</time>
      </trkpt>
      <trkpt lat="44.83829" lon="0.54804">
        <ele>92</ele>
        <time>2021-10-12T12:06:54.025Z</time>
      </trkpt>
      <trkpt lat="44.83832" lon="0.54816">
        <ele>92</ele>
        <time>2021-10-12T12:07:01.023Z</time>
      </trkpt>
      <trkpt lat="44.83837" lon="0.54827">
        <ele>92</ele>
        <time>2021-10-12T12:07:08.030Z</time>
      </trkpt>
      <trkpt lat="44.83843" lon="0.54837">
        <ele>91</ele>
        <time>2021-10-12T12:07:15.024Z</time>
      </trkpt>
      <trkpt lat="44.83847" lon="0.5485">
        <ele>91</ele>
        <time>2021-10-12T12:07:21.025Z</time>
      </trkpt>
      <trkpt lat="44.83852" lon="0.54861">
        <ele>91</ele>
        <time>2021-10-12T12:07:29.064Z</time>
      </trkpt>
      <trkpt lat="44.83856" lon="0.54874">
        <ele>90</ele>
        <time>2021-10-12T12:07:36.028Z</time>
      </trkpt>
      <trkpt lat="44.83861" lon="0.54886">
        <ele>90</ele>
        <time>2021-10-12T12:07:44.029Z</time>
      </trkpt>
      <trkpt lat="44.83865" lon="0.54899">
        <ele>90</ele>
        <time>2021-10-12T12:07:52.077Z</time>
      </trkpt>
      <trkpt lat="44.83868" lon="0.54912">
        <ele>90</ele>
        <time>2021-10-12T12:07:59.038Z</time>
      </trkpt>
      <trkpt lat="44.8387" lon="0.54924">
        <ele>90</ele>
        <time>2021-10-12T12:08:06.025Z</time>
      </trkpt>
      <trkpt lat="44.83871" lon="0.54939">
        <ele>90</ele>
        <time>2021-10-12T12:08:13.028Z</time>
      </trkpt>
      <trkpt lat="44.83872" lon="0.54952">
        <ele>90</ele>
        <time>2021-10-12T12:08:20.076Z</time>
      </trkpt>
      <trkpt lat="44.83874" lon="0.54965">
        <ele>89</ele>
        <time>2021-10-12T12:08:27.024Z</time>
      </trkpt>
      <trkpt lat="44.83875" lon="0.54978">
        <ele>89</ele>
        <time>2021-10-12T12:08:34.034Z</time>
      </trkpt>
      <trkpt lat="44.83875" lon="0.54992">
        <ele>89</ele>
        <time>2021-10-12T12:08:41.028Z</time>
      </trkpt>
      <trkpt lat="44.83876" lon="0.55006">
        <ele>89</ele>
        <time>2021-10-12T12:08:48.029Z</time>
      </trkpt>
      <trkpt lat="44.83876" lon="0.5502">
        <ele>89</ele>
        <time>2021-10-12T12:08:55.027Z</time>
      </trkpt>
      <trkpt lat="44.83876" lon="0.55033">
        <ele>89</ele>
        <time>2021-10-12T12:09:02.026Z</time>
      </trkpt>
      <trkpt lat="44.83876" lon="0.55047">
        <ele>89</ele>
        <time>2021-10-12T12:09:10.025Z</time>
      </trkpt>
      <trkpt lat="44.83876" lon="0.5506">
        <ele>89</ele>
        <time>2021-10-12T12:09:17.029Z</time>
      </trkpt>
      <trkpt lat="44.83875" lon="0.55074">
        <ele>90</ele>
        <time>2021-10-12T12:09:24.070Z</time>
      </trkpt>
      <trkpt lat="44.83874" lon="0.55088">
        <ele>90</ele>
        <time>2021-10-12T12:09:31.033Z</time>
      </trkpt>
      <trkpt lat="44.83873" lon="0.55101">
        <ele>90</ele>
        <time>2021-10-12T12:09:38.026Z</time>
      </trkpt>
      <trkpt lat="44.83872" lon="0.55114">
        <ele>90</ele>
        <time>2021-10-12T12:09:46.026Z</time>
      </trkpt>
      <trkpt lat="44.83872" lon="0.55127">
        <ele>90</ele>
        <time>2021-10-12T12:09:53.078Z</time>
      </trkpt>
      <trkpt lat="44.83873" lon="0.55141">
        <ele>90</ele>
        <time>2021-10-12T12:10:00.031Z</time>
      </trkpt>
      <trkpt lat="44.83875" lon="0.55154">
        <ele>89</ele>
        <time>2021-10-12T12:10:07.028Z</time>
      </trkpt>
      <trkpt lat="44.83878" lon="0.55167">
        <ele>89</ele>
        <time>2021-10-12T12:10:14.030Z</time>
      </trkpt>
      <trkpt lat="44.83882" lon="0.55179">
        <ele>89</ele>
        <time>2021-10-12T12:10:21.028Z</time>
      </trkpt>
      <trkpt lat="44.83884" lon="0.55192">
        <ele>89</ele>
        <time>2021-10-12T12:10:28.031Z</time>
      </trkpt>
      <trkpt lat="44.83886" lon="0.55205">
        <ele>89</ele>
        <time>2021-10-12T12:10:35.020Z</time>
      </trkpt>
      <trkpt lat="44.83888" lon="0.55219">
        <ele>89</ele>
        <time>2021-10-12T12:10:43.026Z</time>
      </trkpt>
      <trkpt lat="44.83891" lon="0.55233">
        <ele>89</ele>
        <time>2021-10-12T12:10:50.076Z</time>
      </trkpt>
      <trkpt lat="44.8389" lon="0.55246">
        <ele>89</ele>
        <time>2021-10-12T12:10:55.028Z</time>
      </trkpt>
      <trkpt lat="44.83881" lon="0.55253">
        <ele>89</ele>
        <time>2021-10-12T12:11:01.090Z</time>
      </trkpt>
      <trkpt lat="44.83873" lon="0.55258">
        <ele>89</ele>
        <time>2021-10-12T12:11:07.077Z</time>
      </trkpt>
      <trkpt lat="44.83865" lon="0.55266">
        <ele>89</ele>
        <time>2021-10-12T12:11:13.029Z</time>
      </trkpt>
      <trkpt lat="44.83856" lon="0.55272">
        <ele>89</ele>
        <time>2021-10-12T12:11:19.027Z</time>
      </trkpt>
      <trkpt lat="44.83848" lon="0.55277">
        <ele>89</ele>
        <time>2021-10-12T12:11:24.047Z</time>
      </trkpt>
      <trkpt lat="44.83838" lon="0.55284">
        <ele>88</ele>
        <time>2021-10-12T12:11:30.072Z</time>
      </trkpt>
      <trkpt lat="44.8383" lon="0.55289">
        <ele>88</ele>
        <time>2021-10-12T12:11:36.031Z</time>
      </trkpt>
      <trkpt lat="44.83821" lon="0.55293">
        <ele>87</ele>
        <time>2021-10-12T12:11:43.030Z</time>
      </trkpt>
      <trkpt lat="44.83812" lon="0.55298">
        <ele>87</ele>
        <time>2021-10-12T12:11:50.028Z</time>
      </trkpt>
      <trkpt lat="44.83803" lon="0.55303">
        <ele>87</ele>
        <time>2021-10-12T12:11:56.035Z</time>
      </trkpt>
      <trkpt lat="44.83794" lon="0.55309">
        <ele>86</ele>
        <time>2021-10-12T12:12:02.033Z</time>
      </trkpt>
      <trkpt lat="44.83785" lon="0.55313">
        <ele>86</ele>
        <time>2021-10-12T12:12:09.036Z</time>
      </trkpt>
      <trkpt lat="44.83775" lon="0.55317">
        <ele>86</ele>
        <time>2021-10-12T12:12:16.033Z</time>
      </trkpt>
      <trkpt lat="44.83766" lon="0.55322">
        <ele>86</ele>
        <time>2021-10-12T12:12:23.032Z</time>
      </trkpt>
      <trkpt lat="44.83756" lon="0.55327">
        <ele>86</ele>
        <time>2021-10-12T12:12:30.049Z</time>
      </trkpt>
      <trkpt lat="44.83747" lon="0.55333">
        <ele>87</ele>
        <time>2021-10-12T12:12:38.031Z</time>
      </trkpt>
      <trkpt lat="44.83738" lon="0.55337">
        <ele>87</ele>
        <time>2021-10-12T12:12:44.031Z</time>
      </trkpt>
      <trkpt lat="44.8373" lon="0.55341">
        <ele>87</ele>
        <time>2021-10-12T12:12:50.035Z</time>
      </trkpt>
      <trkpt lat="44.8372" lon="0.55345">
        <ele>88</ele>
        <time>2021-10-12T12:12:57.078Z</time>
      </trkpt>
      <trkpt lat="44.8371" lon="0.55349">
        <ele>88</ele>
        <time>2021-10-12T12:13:04.034Z</time>
      </trkpt>
      <trkpt lat="44.83701" lon="0.55353">
        <ele>89</ele>
        <time>2021-10-12T12:13:10.034Z</time>
      </trkpt>
      <trkpt lat="44.83692" lon="0.55357">
        <ele>89</ele>
        <time>2021-10-12T12:13:17.037Z</time>
      </trkpt>
      <trkpt lat="44.83683" lon="0.55362">
        <ele>89</ele>
        <time>2021-10-12T12:13:24.030Z</time>
      </trkpt>
      <trkpt lat="44.83672" lon="0.55364">
        <ele>90</ele>
        <time>2021-10-12T12:13:31.077Z</time>
      </trkpt>
      <trkpt lat="44.83663" lon="0.55368">
        <ele>90</ele>
        <time>2021-10-12T12:13:38.034Z</time>
      </trkpt>
      <trkpt lat="44.83653" lon="0.55372">
        <ele>90</ele>
        <time>2021-10-12T12:13:45.033Z</time>
      </trkpt>
      <trkpt lat="44.83643" lon="0.55376">
        <ele>90</ele>
        <time>2021-10-12T12:13:52.029Z</time>
      </trkpt>
      <trkpt lat="44.83633" lon="0.55379">
        <ele>90</ele>
        <time>2021-10-12T12:13:59.033Z</time>
      </trkpt>
      <trkpt lat="44.83623" lon="0.55385">
        <ele>90</ele>
        <time>2021-10-12T12:14:06.050Z</time>
      </trkpt>
      <trkpt lat="44.83615" lon="0.55393">
        <ele>90</ele>
        <time>2021-10-12T12:14:13.026Z</time>
      </trkpt>
      <trkpt lat="44.83606" lon="0.55398">
        <ele>90</ele>
        <time>2021-10-12T12:14:21.034Z</time>
      </trkpt>
      <trkpt lat="44.83596" lon="0.55405">
        <ele>90</ele>
        <time>2021-10-12T12:14:28.076Z</time>
      </trkpt>
      <trkpt lat="44.83587" lon="0.55412">
        <ele>89</ele>
        <time>2021-10-12T12:14:35.032Z</time>
      </trkpt>
      <trkpt lat="44.83578" lon="0.55418">
        <ele>89</ele>
        <time>2021-10-12T12:14:42.031Z</time>
      </trkpt>
      <trkpt lat="44.83569" lon="0.55424">
        <ele>89</ele>
        <time>2021-10-12T12:14:49.034Z</time>
      </trkpt>
      <trkpt lat="44.83561" lon="0.55431">
        <ele>89</ele>
        <time>2021-10-12T12:14:56.031Z</time>
      </trkpt>
      <trkpt lat="44.83552" lon="0.55439">
        <ele>89</ele>
        <time>2021-10-12T12:15:03.073Z</time>
      </trkpt>
      <trkpt lat="44.83544" lon="0.55447">
        <ele>88</ele>
        <time>2021-10-12T12:15:10.027Z</time>
      </trkpt>
      <trkpt lat="44.83537" lon="0.55456">
        <ele>88</ele>
        <time>2021-10-12T12:15:17.029Z</time>
      </trkpt>
      <trkpt lat="44.8353" lon="0.55464">
        <ele>88</ele>
        <time>2021-10-12T12:15:24.028Z</time>
      </trkpt>
      <trkpt lat="44.83522" lon="0.55471">
        <ele>88</ele>
        <time>2021-10-12T12:15:31.029Z</time>
      </trkpt>
      <trkpt lat="44.83514" lon="0.55477">
        <ele>88</ele>
        <time>2021-10-12T12:15:37.039Z</time>
      </trkpt>
      <trkpt lat="44.83504" lon="0.55483">
        <ele>88</ele>
        <time>2021-10-12T12:15:44.026Z</time>
      </trkpt>
      <trkpt lat="44.83495" lon="0.55488">
        <ele>88</ele>
        <time>2021-10-12T12:15:50.028Z</time>
      </trkpt>
      <trkpt lat="44.83487" lon="0.55493">
        <ele>88</ele>
        <time>2021-10-12T12:15:56.031Z</time>
      </trkpt>
      <trkpt lat="44.83478" lon="0.55498">
        <ele>88</ele>
        <time>2021-10-12T12:16:03.078Z</time>
      </trkpt>
      <trkpt lat="44.83468" lon="0.55502">
        <ele>88</ele>
        <time>2021-10-12T12:16:10.034Z</time>
      </trkpt>
      <trkpt lat="44.8346" lon="0.55506">
        <ele>89</ele>
        <time>2021-10-12T12:16:17.029Z</time>
      </trkpt>
      <trkpt lat="44.83451" lon="0.55512">
        <ele>89</ele>
        <time>2021-10-12T12:16:24.029Z</time>
      </trkpt>
      <trkpt lat="44.83443" lon="0.55519">
        <ele>89</ele>
        <time>2021-10-12T12:16:31.026Z</time>
      </trkpt>
      <trkpt lat="44.83433" lon="0.55525">
        <ele>89</ele>
        <time>2021-10-12T12:16:38.091Z</time>
      </trkpt>
      <trkpt lat="44.83425" lon="0.55531">
        <ele>89</ele>
        <time>2021-10-12T12:16:44.072Z</time>
      </trkpt>
      <trkpt lat="44.83417" lon="0.55536">
        <ele>89</ele>
        <time>2021-10-12T12:16:50.074Z</time>
      </trkpt>
      <trkpt lat="44.83409" lon="0.55544">
        <ele>89</ele>
        <time>2021-10-12T12:16:56.025Z</time>
      </trkpt>
      <trkpt lat="44.83401" lon="0.55552">
        <ele>90</ele>
        <time>2021-10-12T12:17:04.028Z</time>
      </trkpt>
      <trkpt lat="44.83393" lon="0.55561">
        <ele>90</ele>
        <time>2021-10-12T12:17:11.028Z</time>
      </trkpt>
      <trkpt lat="44.83386" lon="0.55571">
        <ele>91</ele>
        <time>2021-10-12T12:17:18.026Z</time>
      </trkpt>
      <trkpt lat="44.8338" lon="0.5558">
        <ele>91</ele>
        <time>2021-10-12T12:17:24.029Z</time>
      </trkpt>
      <trkpt lat="44.83373" lon="0.5559">
        <ele>91</ele>
        <time>2021-10-12T12:17:30.033Z</time>
      </trkpt>
      <trkpt lat="44.83367" lon="0.55599">
        <ele>92</ele>
        <time>2021-10-12T12:17:37.029Z</time>
      </trkpt>
      <trkpt lat="44.83361" lon="0.55609">
        <ele>92</ele>
        <time>2021-10-12T12:17:44.031Z</time>
      </trkpt>
      <trkpt lat="44.83353" lon="0.55618">
        <ele>92</ele>
        <time>2021-10-12T12:17:51.028Z</time>
      </trkpt>
      <trkpt lat="44.83346" lon="0.55627">
        <ele>93</ele>
        <time>2021-10-12T12:17:58.028Z</time>
      </trkpt>
      <trkpt lat="44.8334" lon="0.55637">
        <ele>93</ele>
        <time>2021-10-12T12:18:05.075Z</time>
      </trkpt>
      <trkpt lat="44.83331" lon="0.55644">
        <ele>93</ele>
        <time>2021-10-12T12:18:14.029Z</time>
      </trkpt>
      <trkpt lat="44.83324" lon="0.55653">
        <ele>93</ele>
        <time>2021-10-12T12:18:20.029Z</time>
      </trkpt>
      <trkpt lat="44.83318" lon="0.55662">
        <ele>93</ele>
        <time>2021-10-12T12:18:26.028Z</time>
      </trkpt>
      <trkpt lat="44.8331" lon="0.5567">
        <ele>93</ele>
        <time>2021-10-12T12:18:33.030Z</time>
      </trkpt>
      <trkpt lat="44.83303" lon="0.55679">
        <ele>93</ele>
        <time>2021-10-12T12:18:39.031Z</time>
      </trkpt>
      <trkpt lat="44.83295" lon="0.55688">
        <ele>93</ele>
        <time>2021-10-12T12:18:46.030Z</time>
      </trkpt>
      <trkpt lat="44.83287" lon="0.55696">
        <ele>93</ele>
        <time>2021-10-12T12:18:52.031Z</time>
      </trkpt>
      <trkpt lat="44.83279" lon="0.55705">
        <ele>93</ele>
        <time>2021-10-12T12:18:59.076Z</time>
      </trkpt>
      <trkpt lat="44.83272" lon="0.55713">
        <ele>92</ele>
        <time>2021-10-12T12:19:06.028Z</time>
      </trkpt>
      <trkpt lat="44.83264" lon="0.55721">
        <ele>92</ele>
        <time>2021-10-12T12:19:12.053Z</time>
      </trkpt>
      <trkpt lat="44.83255" lon="0.55727">
        <ele>92</ele>
        <time>2021-10-12T12:19:20.032Z</time>
      </trkpt>
      <trkpt lat="44.83247" lon="0.55734">
        <ele>92</ele>
        <time>2021-10-12T12:19:26.033Z</time>
      </trkpt>
      <trkpt lat="44.83238" lon="0.55741">
        <ele>92</ele>
        <time>2021-10-12T12:19:33.031Z</time>
      </trkpt>
      <trkpt lat="44.83229" lon="0.55747">
        <ele>92</ele>
        <time>2021-10-12T12:19:40.032Z</time>
      </trkpt>
      <trkpt lat="44.83221" lon="0.55754">
        <ele>92</ele>
        <time>2021-10-12T12:19:47.095Z</time>
      </trkpt>
      <trkpt lat="44.83213" lon="0.5576">
        <ele>92</ele>
        <time>2021-10-12T12:19:53.069Z</time>
      </trkpt>
      <trkpt lat="44.83204" lon="0.55767">
        <ele>92</ele>
        <time>2021-10-12T12:20:00.058Z</time>
      </trkpt>
      <trkpt lat="44.83195" lon="0.55773">
        <ele>92</ele>
        <time>2021-10-12T12:20:07.030Z</time>
      </trkpt>
      <trkpt lat="44.83186" lon="0.5578">
        <ele>92</ele>
        <time>2021-10-12T12:20:14.036Z</time>
      </trkpt>
      <trkpt lat="44.83179" lon="0.55788">
        <ele>92</ele>
        <time>2021-10-12T12:20:21.029Z</time>
      </trkpt>
      <trkpt lat="44.83171" lon="0.55794">
        <ele>92</ele>
        <time>2021-10-12T12:20:28.029Z</time>
      </trkpt>
      <trkpt lat="44.83162" lon="0.558">
        <ele>92</ele>
        <time>2021-10-12T12:20:35.045Z</time>
      </trkpt>
      <trkpt lat="44.83154" lon="0.55807">
        <ele>92</ele>
        <time>2021-10-12T12:20:41.030Z</time>
      </trkpt>
      <trkpt lat="44.83147" lon="0.55814">
        <ele>92</ele>
        <time>2021-10-12T12:20:47.030Z</time>
      </trkpt>
      <trkpt lat="44.83137" lon="0.5582">
        <ele>92</ele>
        <time>2021-10-12T12:20:54.032Z</time>
      </trkpt>
      <trkpt lat="44.83128" lon="0.55827">
        <ele>91</ele>
        <time>2021-10-12T12:21:01.048Z</time>
      </trkpt>
      <trkpt lat="44.83119" lon="0.55833">
        <ele>91</ele>
        <time>2021-10-12T12:21:08.034Z</time>
      </trkpt>
      <trkpt lat="44.83111" lon="0.55839">
        <ele>91</ele>
        <time>2021-10-12T12:21:14.100Z</time>
      </trkpt>
      <trkpt lat="44.83103" lon="0.55845">
        <ele>91</ele>
        <time>2021-10-12T12:21:20.075Z</time>
      </trkpt>
      <trkpt lat="44.83095" lon="0.55853">
        <ele>91</ele>
        <time>2021-10-12T12:21:26.092Z</time>
      </trkpt>
      <trkpt lat="44.83087" lon="0.55858">
        <ele>91</ele>
        <time>2021-10-12T12:21:33.029Z</time>
      </trkpt>
      <trkpt lat="44.83077" lon="0.55858">
        <ele>91</ele>
        <time>2021-10-12T12:21:40.034Z</time>
      </trkpt>
      <trkpt lat="44.8307" lon="0.55848">
        <ele>91</ele>
        <time>2021-10-12T12:21:46.030Z</time>
      </trkpt>
      <trkpt lat="44.83064" lon="0.55837">
        <ele>91</ele>
        <time>2021-10-12T12:21:52.030Z</time>
      </trkpt>
      <trkpt lat="44.83059" lon="0.55826">
        <ele>91</ele>
        <time>2021-10-12T12:21:59.033Z</time>
      </trkpt>
      <trkpt lat="44.83053" lon="0.55814">
        <ele>92</ele>
        <time>2021-10-12T12:22:06.080Z</time>
      </trkpt>
      <trkpt lat="44.83048" lon="0.55803">
        <ele>92</ele>
        <time>2021-10-12T12:22:13.034Z</time>
      </trkpt>
      <trkpt lat="44.83042" lon="0.55791">
        <ele>92</ele>
        <time>2021-10-12T12:22:20.033Z</time>
      </trkpt>
      <trkpt lat="44.83037" lon="0.55781">
        <ele>92</ele>
        <time>2021-10-12T12:22:26.031Z</time>
      </trkpt>
      <trkpt lat="44.83031" lon="0.5577">
        <ele>93</ele>
        <time>2021-10-12T12:22:33.046Z</time>
      </trkpt>
      <trkpt lat="44.83026" lon="0.55758">
        <ele>93</ele>
        <time>2021-10-12T12:22:40.031Z</time>
      </trkpt>
      <trkpt lat="44.83021" lon="0.55746">
        <ele>93</ele>
        <time>2021-10-12T12:22:47.032Z</time>
      </trkpt>
      <trkpt lat="44.83015" lon="0.55734">
        <ele>93</ele>
        <time>2021-10-12T12:22:54.034Z</time>
      </trkpt>
      <trkpt lat="44.8301" lon="0.55722">
        <ele>93</ele>
        <time>2021-10-12T12:23:01.034Z</time>
      </trkpt>
      <trkpt lat="44.83005" lon="0.5571">
        <ele>93</ele>
        <time>2021-10-12T12:23:08.034Z</time>
      </trkpt>
      <trkpt lat="44.82998" lon="0.55699">
        <ele>92</ele>
        <time>2021-10-12T12:23:15.072Z</time>
      </trkpt>
      <trkpt lat="44.82993" lon="0.55688">
        <ele>92</ele>
        <time>2021-10-12T12:23:21.071Z</time>
      </trkpt>
      <trkpt lat="44.82988" lon="0.55677">
        <ele>92</ele>
        <time>2021-10-12T12:23:28.031Z</time>
      </trkpt>
      <trkpt lat="44.82981" lon="0.55666">
        <ele>91</ele>
        <time>2021-10-12T12:23:35.031Z</time>
      </trkpt>
      <trkpt lat="44.82976" lon="0.55654">
        <ele>91</ele>
        <time>2021-10-12T12:23:42.033Z</time>
      </trkpt>
      <trkpt lat="44.82971" lon="0.55643">
        <ele>91</ele>
        <time>2021-10-12T12:23:48.035Z</time>
      </trkpt>
      <trkpt lat="44.82965" lon="0.55632">
        <ele>91</ele>
        <time>2021-10-12T12:23:55.040Z</time>
      </trkpt>
      <trkpt lat="44.8296" lon="0.5562">
        <ele>92</ele>
        <time>2021-10-12T12:24:02.030Z</time>
      </trkpt>
      <trkpt lat="44.82955" lon="0.55608">
        <ele>92</ele>
        <time>2021-10-12T12:24:09.023Z</time>
      </trkpt>
      <trkpt lat="44.8295" lon="0.55597">
        <ele>93</ele>
        <time>2021-10-12T12:24:16.034Z</time>
      </trkpt>
      <trkpt lat="44.82944" lon="0.55585">
        <ele>93</ele>
        <time>2021-10-12T12:24:23.036Z</time>
      </trkpt>
      <trkpt lat="44.82938" lon="0.55575">
        <ele>93</ele>
        <time>2021-10-12T12:24:30.034Z</time>
      </trkpt>
      <trkpt lat="44.82932" lon="0.55563">
        <ele>93</ele>
        <time>2021-10-12T12:24:37.029Z</time>
      </trkpt>
      <trkpt lat="44.82928" lon="0.55552">
        <ele>93</ele>
        <time>2021-10-12T12:24:44.078Z</time>
      </trkpt>
      <trkpt lat="44.82922" lon="0.55541">
        <ele>93</ele>
        <time>2021-10-12T12:24:51.034Z</time>
      </trkpt>
      <trkpt lat="44.82917" lon="0.5553">
        <ele>93</ele>
        <time>2021-10-12T12:24:58.022Z</time>
      </trkpt>
      <trkpt lat="44.82912" lon="0.5552">
        <ele>93</ele>
        <time>2021-10-12T12:25:04.037Z</time>
      </trkpt>
      <trkpt lat="44.82906" lon="0.55508">
        <ele>92</ele>
        <time>2021-10-12T12:25:11.030Z</time>
      </trkpt>
      <trkpt lat="44.829" lon="0.55496">
        <ele>92</ele>
        <time>2021-10-12T12:25:18.028Z</time>
      </trkpt>
      <trkpt lat="44.82895" lon="0.55484">
        <ele>92</ele>
        <time>2021-10-12T12:25:25.034Z</time>
      </trkpt>
      <trkpt lat="44.8289" lon="0.55474">
        <ele>91</ele>
        <time>2021-10-12T12:25:32.034Z</time>
      </trkpt>
      <trkpt lat="44.82883" lon="0.55465">
        <ele>91</ele>
        <time>2021-10-12T12:25:41.030Z</time>
      </trkpt>
      <trkpt lat="44.8288" lon="0.55464">
        <ele>92</ele>
        <time>2021-10-12T12:26:24.017Z</time>
      </trkpt>
      <trkpt lat="44.8288" lon="0.55464">
        <ele>92</ele>
        <time>2021-10-12T12:26:44.035Z</time>
      </trkpt>
      <trkpt lat="44.82877" lon="0.55466">
        <ele>93</ele>
        <time>2021-10-12T12:26:45.039Z</time>
      </trkpt>
      <trkpt lat="44.82866" lon="0.55469">
        <ele>93</ele>
        <time>2021-10-12T12:27:06.040Z</time>
      </trkpt>
      <trkpt lat="44.82857" lon="0.55467">
        <ele>93</ele>
        <time>2021-10-12T12:27:12.038Z</time>
      </trkpt>
      <trkpt lat="44.82848" lon="0.55462">
        <ele>93</ele>
        <time>2021-10-12T12:27:18.038Z</time>
      </trkpt>
      <trkpt lat="44.82839" lon="0.55455">
        <ele>92</ele>
        <time>2021-10-12T12:27:24.038Z</time>
      </trkpt>
      <trkpt lat="44.8283" lon="0.5545">
        <ele>92</ele>
        <time>2021-10-12T12:27:30.041Z</time>
      </trkpt>
      <trkpt lat="44.82822" lon="0.55443">
        <ele>92</ele>
        <time>2021-10-12T12:27:35.035Z</time>
      </trkpt>
      <trkpt lat="44.82815" lon="0.55434">
        <ele>92</ele>
        <time>2021-10-12T12:27:41.040Z</time>
      </trkpt>
      <trkpt lat="44.82808" lon="0.55425">
        <ele>91</ele>
        <time>2021-10-12T12:27:46.046Z</time>
      </trkpt>
      <trkpt lat="44.82799" lon="0.55418">
        <ele>91</ele>
        <time>2021-10-12T12:27:52.039Z</time>
      </trkpt>
      <trkpt lat="44.82791" lon="0.55413">
        <ele>91</ele>
        <time>2021-10-12T12:27:58.037Z</time>
      </trkpt>
      <trkpt lat="44.82781" lon="0.55408">
        <ele>91</ele>
        <time>2021-10-12T12:28:05.039Z</time>
      </trkpt>
      <trkpt lat="44.82773" lon="0.55399">
        <ele>91</ele>
        <time>2021-10-12T12:28:12.041Z</time>
      </trkpt>
      <trkpt lat="44.82765" lon="0.5539">
        <ele>90</ele>
        <time>2021-10-12T12:28:18.041Z</time>
      </trkpt>
      <trkpt lat="44.82758" lon="0.5538">
        <ele>90</ele>
        <time>2021-10-12T12:28:25.077Z</time>
      </trkpt>
      <trkpt lat="44.82753" lon="0.55369">
        <ele>91</ele>
        <time>2021-10-12T12:28:32.041Z</time>
      </trkpt>
      <trkpt lat="44.82747" lon="0.55358">
        <ele>91</ele>
        <time>2021-10-12T12:28:39.039Z</time>
      </trkpt>
      <trkpt lat="44.82738" lon="0.55354">
        <ele>91</ele>
        <time>2021-10-12T12:28:47.035Z</time>
      </trkpt>
      <trkpt lat="44.82732" lon="0.55365">
        <ele>91</ele>
        <time>2021-10-12T12:28:55.036Z</time>
      </trkpt>
      <trkpt lat="44.82726" lon="0.55376">
        <ele>91</ele>
        <time>2021-10-12T12:29:02.040Z</time>
      </trkpt>
      <trkpt lat="44.82719" lon="0.55387">
        <ele>91</ele>
        <time>2021-10-12T12:29:09.036Z</time>
      </trkpt>
      <trkpt lat="44.82713" lon="0.55396">
        <ele>90</ele>
        <time>2021-10-12T12:29:16.092Z</time>
      </trkpt>
      <trkpt lat="44.82707" lon="0.55406">
        <ele>89</ele>
        <time>2021-10-12T12:29:23.040Z</time>
      </trkpt>
      <trkpt lat="44.82699" lon="0.55413">
        <ele>89</ele>
        <time>2021-10-12T12:29:29.034Z</time>
      </trkpt>
      <trkpt lat="44.82691" lon="0.55421">
        <ele>89</ele>
        <time>2021-10-12T12:29:34.100Z</time>
      </trkpt>
      <trkpt lat="44.82681" lon="0.55427">
        <ele>88</ele>
        <time>2021-10-12T12:29:41.038Z</time>
      </trkpt>
      <trkpt lat="44.82673" lon="0.55433">
        <ele>88</ele>
        <time>2021-10-12T12:29:48.037Z</time>
      </trkpt>
      <trkpt lat="44.82664" lon="0.55439">
        <ele>88</ele>
        <time>2021-10-12T12:29:56.037Z</time>
      </trkpt>
      <trkpt lat="44.82655" lon="0.55447">
        <ele>88</ele>
        <time>2021-10-12T12:30:04.034Z</time>
      </trkpt>
      <trkpt lat="44.82647" lon="0.55455">
        <ele>89</ele>
        <time>2021-10-12T12:30:12.077Z</time>
      </trkpt>
      <trkpt lat="44.82639" lon="0.55462">
        <ele>88</ele>
        <time>2021-10-12T12:30:32.040Z</time>
      </trkpt>
      <trkpt lat="44.82631" lon="0.55467">
        <ele>87</ele>
        <time>2021-10-12T12:30:41.040Z</time>
      </trkpt>
      <trkpt lat="44.82622" lon="0.55473">
        <ele>86</ele>
        <time>2021-10-12T12:30:47.036Z</time>
      </trkpt>
      <trkpt lat="44.82614" lon="0.55481">
        <ele>85</ele>
        <time>2021-10-12T12:30:54.038Z</time>
      </trkpt>
      <trkpt lat="44.82605" lon="0.55486">
        <ele>85</ele>
        <time>2021-10-12T12:31:01.038Z</time>
      </trkpt>
      <trkpt lat="44.82595" lon="0.55492">
        <ele>85</ele>
        <time>2021-10-12T12:31:08.079Z</time>
      </trkpt>
      <trkpt lat="44.82587" lon="0.55499">
        <ele>84</ele>
        <time>2021-10-12T12:31:15.042Z</time>
      </trkpt>
      <trkpt lat="44.82578" lon="0.55505">
        <ele>84</ele>
        <time>2021-10-12T12:31:22.037Z</time>
      </trkpt>
      <trkpt lat="44.82569" lon="0.55512">
        <ele>84</ele>
        <time>2021-10-12T12:31:28.048Z</time>
      </trkpt>
      <trkpt lat="44.8256" lon="0.55518">
        <ele>84</ele>
        <time>2021-10-12T12:31:34.021Z</time>
      </trkpt>
      <trkpt lat="44.82552" lon="0.55524">
        <ele>84</ele>
        <time>2021-10-12T12:31:41.040Z</time>
      </trkpt>
      <trkpt lat="44.82543" lon="0.5553">
        <ele>85</ele>
        <time>2021-10-12T12:31:48.029Z</time>
      </trkpt>
      <trkpt lat="44.82535" lon="0.55537">
        <ele>85</ele>
        <time>2021-10-12T12:31:54.040Z</time>
      </trkpt>
      <trkpt lat="44.82527" lon="0.55542">
        <ele>85</ele>
        <time>2021-10-12T12:32:01.035Z</time>
      </trkpt>
      <trkpt lat="44.82518" lon="0.55549">
        <ele>86</ele>
        <time>2021-10-12T12:32:09.038Z</time>
      </trkpt>
      <trkpt lat="44.82509" lon="0.55554">
        <ele>86</ele>
        <time>2021-10-12T12:32:16.042Z</time>
      </trkpt>
      <trkpt lat="44.825" lon="0.5556">
        <ele>86</ele>
        <time>2021-10-12T12:32:25.039Z</time>
      </trkpt>
      <trkpt lat="44.82491" lon="0.55565">
        <ele>86</ele>
        <time>2021-10-12T12:32:34.039Z</time>
      </trkpt>
      <trkpt lat="44.82483" lon="0.55571">
        <ele>87</ele>
        <time>2021-10-12T12:32:41.038Z</time>
      </trkpt>
      <trkpt lat="44.82473" lon="0.55575">
        <ele>87</ele>
        <time>2021-10-12T12:32:47.038Z</time>
      </trkpt>
      <trkpt lat="44.82463" lon="0.55579">
        <ele>87</ele>
        <time>2021-10-12T12:32:55.083Z</time>
      </trkpt>
      <trkpt lat="44.82455" lon="0.55585">
        <ele>87</ele>
        <time>2021-10-12T12:33:04.038Z</time>
      </trkpt>
      <trkpt lat="44.82451" lon="0.55597">
        <ele>88</ele>
        <time>2021-10-12T12:33:14.035Z</time>
      </trkpt>
      <trkpt lat="44.82443" lon="0.55606">
        <ele>88</ele>
        <time>2021-10-12T12:33:21.035Z</time>
      </trkpt>
      <trkpt lat="44.82435" lon="0.55612">
        <ele>88</ele>
        <time>2021-10-12T12:33:29.046Z</time>
      </trkpt>
      <trkpt lat="44.82427" lon="0.55618">
        <ele>88</ele>
        <time>2021-10-12T12:33:37.039Z</time>
      </trkpt>
      <trkpt lat="44.82418" lon="0.55623">
        <ele>89</ele>
        <time>2021-10-12T12:33:43.040Z</time>
      </trkpt>
      <trkpt lat="44.82408" lon="0.55627">
        <ele>89</ele>
        <time>2021-10-12T12:33:49.034Z</time>
      </trkpt>
      <trkpt lat="44.82399" lon="0.55631">
        <ele>90</ele>
        <time>2021-10-12T12:33:55.039Z</time>
      </trkpt>
      <trkpt lat="44.8239" lon="0.55634">
        <ele>90</ele>
        <time>2021-10-12T12:34:02.040Z</time>
      </trkpt>
      <trkpt lat="44.82381" lon="0.55637">
        <ele>90</ele>
        <time>2021-10-12T12:34:10.040Z</time>
      </trkpt>
      <trkpt lat="44.8237" lon="0.5564">
        <ele>91</ele>
        <time>2021-10-12T12:34:15.076Z</time>
      </trkpt>
      <trkpt lat="44.82361" lon="0.55644">
        <ele>91</ele>
        <time>2021-10-12T12:34:19.039Z</time>
      </trkpt>
      <trkpt lat="44.82351" lon="0.55647">
        <ele>90</ele>
        <time>2021-10-12T12:34:26.040Z</time>
      </trkpt>
      <trkpt lat="44.82342" lon="0.55649">
        <ele>89</ele>
        <time>2021-10-12T12:34:33.085Z</time>
      </trkpt>
      <trkpt lat="44.82331" lon="0.55651">
        <ele>88</ele>
        <time>2021-10-12T12:34:40.040Z</time>
      </trkpt>
      <trkpt lat="44.82321" lon="0.55653">
        <ele>88</ele>
        <time>2021-10-12T12:34:47.036Z</time>
      </trkpt>
      <trkpt lat="44.82312" lon="0.55656">
        <ele>87</ele>
        <time>2021-10-12T12:34:53.044Z</time>
      </trkpt>
      <trkpt lat="44.82302" lon="0.5566">
        <ele>86</ele>
        <time>2021-10-12T12:35:00.038Z</time>
      </trkpt>
      <trkpt lat="44.82293" lon="0.55664">
        <ele>86</ele>
        <time>2021-10-12T12:35:06.036Z</time>
      </trkpt>
      <trkpt lat="44.82283" lon="0.55667">
        <ele>87</ele>
        <time>2021-10-12T12:35:14.086Z</time>
      </trkpt>
      <trkpt lat="44.82274" lon="0.55669">
        <ele>87</ele>
        <time>2021-10-12T12:35:21.039Z</time>
      </trkpt>
      <trkpt lat="44.82265" lon="0.55673">
        <ele>88</ele>
        <time>2021-10-12T12:35:27.041Z</time>
      </trkpt>
      <trkpt lat="44.82256" lon="0.55676">
        <ele>89</ele>
        <time>2021-10-12T12:35:33.037Z</time>
      </trkpt>
      <trkpt lat="44.82247" lon="0.55679">
        <ele>89</ele>
        <time>2021-10-12T12:35:40.038Z</time>
      </trkpt>
      <trkpt lat="44.82238" lon="0.55682">
        <ele>90</ele>
        <time>2021-10-12T12:35:46.036Z</time>
      </trkpt>
      <trkpt lat="44.82228" lon="0.55685">
        <ele>90</ele>
        <time>2021-10-12T12:35:53.037Z</time>
      </trkpt>
      <trkpt lat="44.82218" lon="0.55687">
        <ele>91</ele>
        <time>2021-10-12T12:36:00.104Z</time>
      </trkpt>
      <trkpt lat="44.82208" lon="0.5569">
        <ele>91</ele>
        <time>2021-10-12T12:36:08.032Z</time>
      </trkpt>
      <trkpt lat="44.82198" lon="0.55693">
        <ele>91</ele>
        <time>2021-10-12T12:36:15.033Z</time>
      </trkpt>
      <trkpt lat="44.82188" lon="0.55696">
        <ele>92</ele>
        <time>2021-10-12T12:36:23.042Z</time>
      </trkpt>
      <trkpt lat="44.82178" lon="0.55702">
        <ele>92</ele>
        <time>2021-10-12T12:36:29.021Z</time>
      </trkpt>
      <trkpt lat="44.82168" lon="0.55704">
        <ele>93</ele>
        <time>2021-10-12T12:36:35.050Z</time>
      </trkpt>
      <trkpt lat="44.82158" lon="0.55706">
        <ele>93</ele>
        <time>2021-10-12T12:36:41.040Z</time>
      </trkpt>
      <trkpt lat="44.82149" lon="0.55709">
        <ele>94</ele>
        <time>2021-10-12T12:36:49.037Z</time>
      </trkpt>
      <trkpt lat="44.82139" lon="0.55711">
        <ele>95</ele>
        <time>2021-10-12T12:36:56.039Z</time>
      </trkpt>
      <trkpt lat="44.82129" lon="0.55713">
        <ele>95</ele>
        <time>2021-10-12T12:37:03.082Z</time>
      </trkpt>
      <trkpt lat="44.82119" lon="0.55716">
        <ele>95</ele>
        <time>2021-10-12T12:37:09.080Z</time>
      </trkpt>
      <trkpt lat="44.8211" lon="0.55718">
        <ele>95</ele>
        <time>2021-10-12T12:37:15.084Z</time>
      </trkpt>
      <trkpt lat="44.821" lon="0.55724">
        <ele>95</ele>
        <time>2021-10-12T12:37:22.040Z</time>
      </trkpt>
      <trkpt lat="44.82092" lon="0.55728">
        <ele>94</ele>
        <time>2021-10-12T12:37:29.038Z</time>
      </trkpt>
      <trkpt lat="44.82082" lon="0.55731">
        <ele>94</ele>
        <time>2021-10-12T12:37:36.035Z</time>
      </trkpt>
      <trkpt lat="44.82072" lon="0.55737">
        <ele>93</ele>
        <time>2021-10-12T12:37:41.029Z</time>
      </trkpt>
      <trkpt lat="44.82063" lon="0.55741">
        <ele>93</ele>
        <time>2021-10-12T12:37:48.073Z</time>
      </trkpt>
      <trkpt lat="44.82053" lon="0.55747">
        <ele>93</ele>
        <time>2021-10-12T12:37:55.025Z</time>
      </trkpt>
      <trkpt lat="44.82045" lon="0.55753">
        <ele>92</ele>
        <time>2021-10-12T12:38:01.040Z</time>
      </trkpt>
      <trkpt lat="44.82037" lon="0.55759">
        <ele>92</ele>
        <time>2021-10-12T12:38:07.040Z</time>
      </trkpt>
      <trkpt lat="44.82031" lon="0.55767">
        <ele>91</ele>
        <time>2021-10-12T12:38:37.023Z</time>
      </trkpt>
      <trkpt lat="44.82031" lon="0.55767">
        <ele>91</ele>
        <time>2021-10-12T12:41:40.037Z</time>
      </trkpt>
      <trkpt lat="44.82028" lon="0.55769">
        <ele>89</ele>
        <time>2021-10-12T12:41:41.034Z</time>
      </trkpt>
      <trkpt lat="44.8202" lon="0.55779">
        <ele>89</ele>
        <time>2021-10-12T12:41:50.040Z</time>
      </trkpt>
      <trkpt lat="44.82013" lon="0.55787">
        <ele>89</ele>
        <time>2021-10-12T12:41:57.027Z</time>
      </trkpt>
      <trkpt lat="44.82005" lon="0.55795">
        <ele>89</ele>
        <time>2021-10-12T12:42:05.033Z</time>
      </trkpt>
      <trkpt lat="44.81996" lon="0.55803">
        <ele>90</ele>
        <time>2021-10-12T12:42:13.079Z</time>
      </trkpt>
      <trkpt lat="44.81988" lon="0.55813">
        <ele>90</ele>
        <time>2021-10-12T12:42:21.036Z</time>
      </trkpt>
      <trkpt lat="44.81981" lon="0.55821">
        <ele>90</ele>
        <time>2021-10-12T12:42:28.037Z</time>
      </trkpt>
      <trkpt lat="44.81974" lon="0.5583">
        <ele>90</ele>
        <time>2021-10-12T12:42:35.038Z</time>
      </trkpt>
      <trkpt lat="44.81965" lon="0.55836">
        <ele>90</ele>
        <time>2021-10-12T12:42:42.093Z</time>
      </trkpt>
      <trkpt lat="44.81957" lon="0.55844">
        <ele>90</ele>
        <time>2021-10-12T12:42:49.033Z</time>
      </trkpt>
      <trkpt lat="44.8195" lon="0.55855">
        <ele>90</ele>
        <time>2021-10-12T12:42:56.036Z</time>
      </trkpt>
      <trkpt lat="44.81944" lon="0.55865">
        <ele>90</ele>
        <time>2021-10-12T12:43:03.036Z</time>
      </trkpt>
      <trkpt lat="44.81938" lon="0.55875">
        <ele>89</ele>
        <time>2021-10-12T12:43:10.029Z</time>
      </trkpt>
      <trkpt lat="44.81931" lon="0.55885">
        <ele>89</ele>
        <time>2021-10-12T12:43:16.073Z</time>
      </trkpt>
      <trkpt lat="44.81924" lon="0.55894">
        <ele>89</ele>
        <time>2021-10-12T12:43:22.072Z</time>
      </trkpt>
      <trkpt lat="44.81917" lon="0.55905">
        <ele>89</ele>
        <time>2021-10-12T12:43:29.030Z</time>
      </trkpt>
      <trkpt lat="44.81911" lon="0.55916">
        <ele>88</ele>
        <time>2021-10-12T12:43:36.036Z</time>
      </trkpt>
      <trkpt lat="44.81905" lon="0.55927">
        <ele>88</ele>
        <time>2021-10-12T12:43:43.027Z</time>
      </trkpt>
      <trkpt lat="44.819" lon="0.55938">
        <ele>88</ele>
        <time>2021-10-12T12:43:49.033Z</time>
      </trkpt>
      <trkpt lat="44.81897" lon="0.5595">
        <ele>87</ele>
        <time>2021-10-12T12:43:58.032Z</time>
      </trkpt>
      <trkpt lat="44.81891" lon="0.55961">
        <ele>87</ele>
        <time>2021-10-12T12:44:06.043Z</time>
      </trkpt>
      <trkpt lat="44.81889" lon="0.55974">
        <ele>87</ele>
        <time>2021-10-12T12:44:15.035Z</time>
      </trkpt>
      <trkpt lat="44.81897" lon="0.55982">
        <ele>88</ele>
        <time>2021-10-12T12:44:28.029Z</time>
      </trkpt>
      <trkpt lat="44.81906" lon="0.55989">
        <ele>88</ele>
        <time>2021-10-12T12:44:35.031Z</time>
      </trkpt>
      <trkpt lat="44.81914" lon="0.55996">
        <ele>90</ele>
        <time>2021-10-12T12:44:43.069Z</time>
      </trkpt>
      <trkpt lat="44.81922" lon="0.56003">
        <ele>91</ele>
        <time>2021-10-12T12:44:49.084Z</time>
      </trkpt>
      <trkpt lat="44.81931" lon="0.56009">
        <ele>92</ele>
        <time>2021-10-12T12:44:56.037Z</time>
      </trkpt>
      <trkpt lat="44.81939" lon="0.56017">
        <ele>93</ele>
        <time>2021-10-12T12:45:04.030Z</time>
      </trkpt>
      <trkpt lat="44.81947" lon="0.56025">
        <ele>94</ele>
        <time>2021-10-12T12:45:12.033Z</time>
      </trkpt>
      <trkpt lat="44.81956" lon="0.56031">
        <ele>94</ele>
        <time>2021-10-12T12:45:20.022Z</time>
      </trkpt>
      <trkpt lat="44.81964" lon="0.56038">
        <ele>95</ele>
        <time>2021-10-12T12:45:29.028Z</time>
      </trkpt>
      <trkpt lat="44.81972" lon="0.56046">
        <ele>95</ele>
        <time>2021-10-12T12:45:38.031Z</time>
      </trkpt>
      <trkpt lat="44.8198" lon="0.56053">
        <ele>96</ele>
        <time>2021-10-12T12:45:47.025Z</time>
      </trkpt>
      <trkpt lat="44.81986" lon="0.56063">
        <ele>97</ele>
        <time>2021-10-12T12:45:57.027Z</time>
      </trkpt>
      <trkpt lat="44.8198" lon="0.56074">
        <ele>98</ele>
        <time>2021-10-12T12:46:05.055Z</time>
      </trkpt>
      <trkpt lat="44.81975" lon="0.56085">
        <ele>99</ele>
        <time>2021-10-12T12:46:14.032Z</time>
      </trkpt>
      <trkpt lat="44.8197" lon="0.56097">
        <ele>99</ele>
        <time>2021-10-12T12:46:23.076Z</time>
      </trkpt>
      <trkpt lat="44.81964" lon="0.56107">
        <ele>100</ele>
        <time>2021-10-12T12:46:32.045Z</time>
      </trkpt>
      <trkpt lat="44.81965" lon="0.5612">
        <ele>102</ele>
        <time>2021-10-12T12:46:44.036Z</time>
      </trkpt>
      <trkpt lat="44.81972" lon="0.56129">
        <ele>103</ele>
        <time>2021-10-12T12:46:56.047Z</time>
      </trkpt>
      <trkpt lat="44.81981" lon="0.56134">
        <ele>105</ele>
        <time>2021-10-12T12:47:06.044Z</time>
      </trkpt>
      <trkpt lat="44.81989" lon="0.5614">
        <ele>106</ele>
        <time>2021-10-12T12:47:17.034Z</time>
      </trkpt>
      <trkpt lat="44.81999" lon="0.56138">
        <ele>108</ele>
        <time>2021-10-12T12:47:29.031Z</time>
      </trkpt>
      <trkpt lat="44.82008" lon="0.56145">
        <ele>108</ele>
        <time>2021-10-12T12:47:36.030Z</time>
      </trkpt>
      <trkpt lat="44.82016" lon="0.5615">
        <ele>109</ele>
        <time>2021-10-12T12:47:42.034Z</time>
      </trkpt>
      <trkpt lat="44.82025" lon="0.56155">
        <ele>110</ele>
        <time>2021-10-12T12:47:49.086Z</time>
      </trkpt>
      <trkpt lat="44.82032" lon="0.56147">
        <ele>111</ele>
        <time>2021-10-12T12:48:08.039Z</time>
      </trkpt>
      <trkpt lat="44.82038" lon="0.56136">
        <ele>112</ele>
        <time>2021-10-12T12:48:17.088Z</time>
      </trkpt>
      <trkpt lat="44.82045" lon="0.56126">
        <ele>112</ele>
        <time>2021-10-12T12:48:23.072Z</time>
      </trkpt>
      <trkpt lat="44.82051" lon="0.56116">
        <ele>112</ele>
        <time>2021-10-12T12:48:30.038Z</time>
      </trkpt>
      <trkpt lat="44.82061" lon="0.56113">
        <ele>112</ele>
        <time>2021-10-12T12:48:37.031Z</time>
      </trkpt>
      <trkpt lat="44.82069" lon="0.56117">
        <ele>113</ele>
        <time>2021-10-12T12:48:48.039Z</time>
      </trkpt>
      <trkpt lat="44.82078" lon="0.56125">
        <ele>113</ele>
        <time>2021-10-12T12:48:54.036Z</time>
      </trkpt>
      <trkpt lat="44.82086" lon="0.56133">
        <ele>113</ele>
        <time>2021-10-12T12:49:01.033Z</time>
      </trkpt>
      <trkpt lat="44.82093" lon="0.56141">
        <ele>113</ele>
        <time>2021-10-12T12:49:08.022Z</time>
      </trkpt>
      <trkpt lat="44.82099" lon="0.56151">
        <ele>113</ele>
        <time>2021-10-12T12:49:15.023Z</time>
      </trkpt>
      <trkpt lat="44.82106" lon="0.56162">
        <ele>114</ele>
        <time>2021-10-12T12:49:21.051Z</time>
      </trkpt>
      <trkpt lat="44.82112" lon="0.56173">
        <ele>114</ele>
        <time>2021-10-12T12:49:28.035Z</time>
      </trkpt>
      <trkpt lat="44.82119" lon="0.56182">
        <ele>114</ele>
        <time>2021-10-12T12:49:35.030Z</time>
      </trkpt>
      <trkpt lat="44.82127" lon="0.56192">
        <ele>115</ele>
        <time>2021-10-12T12:49:42.036Z</time>
      </trkpt>
      <trkpt lat="44.82134" lon="0.56203">
        <ele>115</ele>
        <time>2021-10-12T12:49:49.048Z</time>
      </trkpt>
      <trkpt lat="44.8214" lon="0.56214">
        <ele>115</ele>
        <time>2021-10-12T12:49:57.030Z</time>
      </trkpt>
      <trkpt lat="44.82146" lon="0.56223">
        <ele>115</ele>
        <time>2021-10-12T12:50:03.034Z</time>
      </trkpt>
      <trkpt lat="44.82155" lon="0.5623">
        <ele>114</ele>
        <time>2021-10-12T12:50:07.054Z</time>
      </trkpt>
      <trkpt lat="44.82162" lon="0.5624">
        <ele>113</ele>
        <time>2021-10-12T12:50:16.061Z</time>
      </trkpt>
      <trkpt lat="44.82169" lon="0.56251">
        <ele>112</ele>
        <time>2021-10-12T12:50:23.033Z</time>
      </trkpt>
      <trkpt lat="44.82173" lon="0.56263">
        <ele>111</ele>
        <time>2021-10-12T12:50:32.036Z</time>
      </trkpt>
      <trkpt lat="44.8217" lon="0.56275">
        <ele>110</ele>
        <time>2021-10-12T12:50:40.039Z</time>
      </trkpt>
      <trkpt lat="44.82164" lon="0.56284">
        <ele>109</ele>
        <time>2021-10-12T12:50:47.085Z</time>
      </trkpt>
      <trkpt lat="44.82157" lon="0.56296">
        <ele>108</ele>
        <time>2021-10-12T12:50:55.043Z</time>
      </trkpt>
      <trkpt lat="44.82149" lon="0.56304">
        <ele>107</ele>
        <time>2021-10-12T12:51:02.044Z</time>
      </trkpt>
      <trkpt lat="44.8214" lon="0.56312">
        <ele>106</ele>
        <time>2021-10-12T12:51:08.034Z</time>
      </trkpt>
      <trkpt lat="44.82133" lon="0.5632">
        <ele>106</ele>
        <time>2021-10-12T12:51:14.037Z</time>
      </trkpt>
      <trkpt lat="44.82125" lon="0.56328">
        <ele>105</ele>
        <time>2021-10-12T12:51:20.037Z</time>
      </trkpt>
      <trkpt lat="44.82118" lon="0.56338">
        <ele>104</ele>
        <time>2021-10-12T12:51:27.037Z</time>
      </trkpt>
      <trkpt lat="44.8211" lon="0.56345">
        <ele>104</ele>
        <time>2021-10-12T12:51:34.041Z</time>
      </trkpt>
      <trkpt lat="44.82102" lon="0.56353">
        <ele>104</ele>
        <time>2021-10-12T12:51:41.036Z</time>
      </trkpt>
      <trkpt lat="44.82094" lon="0.56362">
        <ele>103</ele>
        <time>2021-10-12T12:51:50.042Z</time>
      </trkpt>
      <trkpt lat="44.82087" lon="0.5637">
        <ele>103</ele>
        <time>2021-10-12T12:51:58.037Z</time>
      </trkpt>
      <trkpt lat="44.8208" lon="0.56379">
        <ele>103</ele>
        <time>2021-10-12T12:52:06.039Z</time>
      </trkpt>
      <trkpt lat="44.82073" lon="0.56389">
        <ele>103</ele>
        <time>2021-10-12T12:52:13.045Z</time>
      </trkpt>
      <trkpt lat="44.82066" lon="0.56397">
        <ele>103</ele>
        <time>2021-10-12T12:52:19.037Z</time>
      </trkpt>
      <trkpt lat="44.82058" lon="0.56404">
        <ele>103</ele>
        <time>2021-10-12T12:52:25.058Z</time>
      </trkpt>
      <trkpt lat="44.82049" lon="0.56412">
        <ele>104</ele>
        <time>2021-10-12T12:52:31.040Z</time>
      </trkpt>
      <trkpt lat="44.82042" lon="0.56422">
        <ele>104</ele>
        <time>2021-10-12T12:52:39.054Z</time>
      </trkpt>
      <trkpt lat="44.82035" lon="0.5643">
        <ele>104</ele>
        <time>2021-10-12T12:52:48.042Z</time>
      </trkpt>
      <trkpt lat="44.82026" lon="0.56437">
        <ele>104</ele>
        <time>2021-10-12T12:52:56.035Z</time>
      </trkpt>
      <trkpt lat="44.82018" lon="0.56446">
        <ele>104</ele>
        <time>2021-10-12T12:53:03.040Z</time>
      </trkpt>
      <trkpt lat="44.82011" lon="0.56454">
        <ele>105</ele>
        <time>2021-10-12T12:53:09.037Z</time>
      </trkpt>
      <trkpt lat="44.82004" lon="0.56463">
        <ele>105</ele>
        <time>2021-10-12T12:53:15.033Z</time>
      </trkpt>
      <trkpt lat="44.81996" lon="0.56472">
        <ele>105</ele>
        <time>2021-10-12T12:53:22.039Z</time>
      </trkpt>
      <trkpt lat="44.81988" lon="0.56482">
        <ele>105</ele>
        <time>2021-10-12T12:53:30.074Z</time>
      </trkpt>
      <trkpt lat="44.81982" lon="0.56491">
        <ele>105</ele>
        <time>2021-10-12T12:53:38.065Z</time>
      </trkpt>
      <trkpt lat="44.81975" lon="0.56502">
        <ele>105</ele>
        <time>2021-10-12T12:53:47.036Z</time>
      </trkpt>
      <trkpt lat="44.81966" lon="0.56509">
        <ele>105</ele>
        <time>2021-10-12T12:53:54.033Z</time>
      </trkpt>
      <trkpt lat="44.81958" lon="0.56516">
        <ele>105</ele>
        <time>2021-10-12T12:54:00.038Z</time>
      </trkpt>
      <trkpt lat="44.8195" lon="0.56524">
        <ele>106</ele>
        <time>2021-10-12T12:54:06.040Z</time>
      </trkpt>
      <trkpt lat="44.81943" lon="0.56533">
        <ele>107</ele>
        <time>2021-10-12T12:54:13.056Z</time>
      </trkpt>
      <trkpt lat="44.81935" lon="0.56539">
        <ele>108</ele>
        <time>2021-10-12T12:54:21.044Z</time>
      </trkpt>
      <trkpt lat="44.81928" lon="0.56548">
        <ele>110</ele>
        <time>2021-10-12T12:54:27.037Z</time>
      </trkpt>
      <trkpt lat="44.8192" lon="0.56557">
        <ele>111</ele>
        <time>2021-10-12T12:54:34.038Z</time>
      </trkpt>
      <trkpt lat="44.81913" lon="0.56566">
        <ele>112</ele>
        <time>2021-10-12T12:54:40.037Z</time>
      </trkpt>
      <trkpt lat="44.81904" lon="0.56573">
        <ele>113</ele>
        <time>2021-10-12T12:54:48.075Z</time>
      </trkpt>
      <trkpt lat="44.81896" lon="0.56581">
        <ele>114</ele>
        <time>2021-10-12T12:54:55.028Z</time>
      </trkpt>
      <trkpt lat="44.81889" lon="0.56589">
        <ele>114</ele>
        <time>2021-10-12T12:55:03.035Z</time>
      </trkpt>
      <trkpt lat="44.81889" lon="0.56603">
        <ele>115</ele>
        <time>2021-10-12T12:55:14.031Z</time>
      </trkpt>
      <trkpt lat="44.81895" lon="0.56613">
        <ele>115</ele>
        <time>2021-10-12T12:55:23.075Z</time>
      </trkpt>
      <trkpt lat="44.81902" lon="0.56622">
        <ele>115</ele>
        <time>2021-10-12T12:55:31.054Z</time>
      </trkpt>
      <trkpt lat="44.81912" lon="0.56623">
        <ele>115</ele>
        <time>2021-10-12T12:55:39.034Z</time>
      </trkpt>
      <trkpt lat="44.81921" lon="0.56627">
        <ele>115</ele>
        <time>2021-10-12T12:55:49.033Z</time>
      </trkpt>
      <trkpt lat="44.81929" lon="0.56635">
        <ele>114</ele>
        <time>2021-10-12T12:55:57.038Z</time>
      </trkpt>
      <trkpt lat="44.81936" lon="0.56643">
        <ele>114</ele>
        <time>2021-10-12T12:56:04.030Z</time>
      </trkpt>
      <trkpt lat="44.81943" lon="0.56652">
        <ele>113</ele>
        <time>2021-10-12T12:56:12.033Z</time>
      </trkpt>
      <trkpt lat="44.8195" lon="0.56663">
        <ele>112</ele>
        <time>2021-10-12T12:56:19.037Z</time>
      </trkpt>
      <trkpt lat="44.81956" lon="0.56672">
        <ele>111</ele>
        <time>2021-10-12T12:56:27.049Z</time>
      </trkpt>
      <trkpt lat="44.81964" lon="0.56681">
        <ele>110</ele>
        <time>2021-10-12T12:56:35.035Z</time>
      </trkpt>
      <trkpt lat="44.81972" lon="0.56688">
        <ele>109</ele>
        <time>2021-10-12T12:56:42.040Z</time>
      </trkpt>
      <trkpt lat="44.8198" lon="0.56697">
        <ele>107</ele>
        <time>2021-10-12T12:56:51.074Z</time>
      </trkpt>
      <trkpt lat="44.81989" lon="0.56699">
        <ele>106</ele>
        <time>2021-10-12T12:57:02.077Z</time>
      </trkpt>
      <trkpt lat="44.81999" lon="0.56698">
        <ele>105</ele>
        <time>2021-10-12T12:57:12.033Z</time>
      </trkpt>
      <trkpt lat="44.82008" lon="0.56697">
        <ele>104</ele>
        <time>2021-10-12T12:57:23.029Z</time>
      </trkpt>
      <trkpt lat="44.82017" lon="0.56696">
        <ele>104</ele>
        <time>2021-10-12T12:57:31.029Z</time>
      </trkpt>
      <trkpt lat="44.82026" lon="0.56691">
        <ele>104</ele>
        <time>2021-10-12T12:57:36.033Z</time>
      </trkpt>
      <trkpt lat="44.82035" lon="0.5669">
        <ele>104</ele>
        <time>2021-10-12T12:57:42.029Z</time>
      </trkpt>
      <trkpt lat="44.82045" lon="0.56695">
        <ele>105</ele>
        <time>2021-10-12T12:57:50.033Z</time>
      </trkpt>
      <trkpt lat="44.82052" lon="0.56703">
        <ele>106</ele>
        <time>2021-10-12T12:57:57.031Z</time>
      </trkpt>
      <trkpt lat="44.82059" lon="0.56711">
        <ele>107</ele>
        <time>2021-10-12T12:58:03.034Z</time>
      </trkpt>
      <trkpt lat="44.82068" lon="0.56718">
        <ele>108</ele>
        <time>2021-10-12T12:58:09.033Z</time>
      </trkpt>
      <trkpt lat="44.82076" lon="0.56726">
        <ele>109</ele>
        <time>2021-10-12T12:58:17.033Z</time>
      </trkpt>
      <trkpt lat="44.82085" lon="0.5673">
        <ele>110</ele>
        <time>2021-10-12T12:58:31.032Z</time>
      </trkpt>
      <trkpt lat="44.82094" lon="0.56725">
        <ele>110</ele>
        <time>2021-10-12T12:58:39.033Z</time>
      </trkpt>
      <trkpt lat="44.82102" lon="0.56719">
        <ele>110</ele>
        <time>2021-10-12T12:58:47.028Z</time>
      </trkpt>
      <trkpt lat="44.82111" lon="0.56713">
        <ele>110</ele>
        <time>2021-10-12T12:58:54.029Z</time>
      </trkpt>
      <trkpt lat="44.82119" lon="0.56706">
        <ele>109</ele>
        <time>2021-10-12T12:59:01.032Z</time>
      </trkpt>
      <trkpt lat="44.82127" lon="0.56699">
        <ele>109</ele>
        <time>2021-10-12T12:59:08.039Z</time>
      </trkpt>
      <trkpt lat="44.82134" lon="0.56691">
        <ele>109</ele>
        <time>2021-10-12T12:59:15.062Z</time>
      </trkpt>
      <trkpt lat="44.82143" lon="0.56686">
        <ele>108</ele>
        <time>2021-10-12T12:59:23.029Z</time>
      </trkpt>
      <trkpt lat="44.82152" lon="0.5668">
        <ele>108</ele>
        <time>2021-10-12T12:59:31.031Z</time>
      </trkpt>
      <trkpt lat="44.8216" lon="0.56672">
        <ele>108</ele>
        <time>2021-10-12T12:59:38.022Z</time>
      </trkpt>
      <trkpt lat="44.82169" lon="0.56666">
        <ele>108</ele>
        <time>2021-10-12T12:59:45.030Z</time>
      </trkpt>
      <trkpt lat="44.82179" lon="0.56661">
        <ele>108</ele>
        <time>2021-10-12T12:59:51.028Z</time>
      </trkpt>
      <trkpt lat="44.82188" lon="0.56656">
        <ele>108</ele>
        <time>2021-10-12T12:59:57.028Z</time>
      </trkpt>
      <trkpt lat="44.82196" lon="0.56648">
        <ele>108</ele>
        <time>2021-10-12T13:00:06.028Z</time>
      </trkpt>
      <trkpt lat="44.82204" lon="0.5664">
        <ele>108</ele>
        <time>2021-10-12T13:00:13.022Z</time>
      </trkpt>
      <trkpt lat="44.82212" lon="0.56631">
        <ele>108</ele>
        <time>2021-10-12T13:00:18.051Z</time>
      </trkpt>
      <trkpt lat="44.82219" lon="0.56623">
        <ele>108</ele>
        <time>2021-10-12T13:00:26.045Z</time>
      </trkpt>
      <trkpt lat="44.82228" lon="0.56617">
        <ele>108</ele>
        <time>2021-10-12T13:00:33.024Z</time>
      </trkpt>
      <trkpt lat="44.82235" lon="0.56606">
        <ele>108</ele>
        <time>2021-10-12T13:00:42.028Z</time>
      </trkpt>
      <trkpt lat="44.82241" lon="0.56597">
        <ele>109</ele>
        <time>2021-10-12T13:00:48.049Z</time>
      </trkpt>
      <trkpt lat="44.82247" lon="0.56587">
        <ele>109</ele>
        <time>2021-10-12T13:00:54.031Z</time>
      </trkpt>
      <trkpt lat="44.82253" lon="0.56577">
        <ele>109</ele>
        <time>2021-10-12T13:01:02.032Z</time>
      </trkpt>
      <trkpt lat="44.8226" lon="0.56568">
        <ele>109</ele>
        <time>2021-10-12T13:01:09.025Z</time>
      </trkpt>
      <trkpt lat="44.82267" lon="0.56557">
        <ele>109</ele>
        <time>2021-10-12T13:01:15.034Z</time>
      </trkpt>
      <trkpt lat="44.82274" lon="0.56547">
        <ele>109</ele>
        <time>2021-10-12T13:01:22.027Z</time>
      </trkpt>
      <trkpt lat="44.8228" lon="0.56537">
        <ele>109</ele>
        <time>2021-10-12T13:01:31.078Z</time>
      </trkpt>
      <trkpt lat="44.82287" lon="0.56526">
        <ele>109</ele>
        <time>2021-10-12T13:01:39.030Z</time>
      </trkpt>
      <trkpt lat="44.82294" lon="0.56515">
        <ele>109</ele>
        <time>2021-10-12T13:01:46.030Z</time>
      </trkpt>
      <trkpt lat="44.823" lon="0.56505">
        <ele>109</ele>
        <time>2021-10-12T13:01:53.034Z</time>
      </trkpt>
      <trkpt lat="44.82306" lon="0.56494">
        <ele>108</ele>
        <time>2021-10-12T13:01:59.051Z</time>
      </trkpt>
      <trkpt lat="44.82314" lon="0.56484">
        <ele>108</ele>
        <time>2021-10-12T13:02:06.034Z</time>
      </trkpt>
      <trkpt lat="44.82321" lon="0.56475">
        <ele>108</ele>
        <time>2021-10-12T13:02:13.028Z</time>
      </trkpt>
      <trkpt lat="44.82328" lon="0.56466">
        <ele>108</ele>
        <time>2021-10-12T13:02:20.033Z</time>
      </trkpt>
      <trkpt lat="44.82335" lon="0.56456">
        <ele>108</ele>
        <time>2021-10-12T13:02:26.033Z</time>
      </trkpt>
      <trkpt lat="44.82341" lon="0.56447">
        <ele>108</ele>
        <time>2021-10-12T13:02:33.029Z</time>
      </trkpt>
      <trkpt lat="44.82348" lon="0.56438">
        <ele>108</ele>
        <time>2021-10-12T13:02:40.030Z</time>
      </trkpt>
      <trkpt lat="44.82355" lon="0.56429">
        <ele>107</ele>
        <time>2021-10-12T13:02:47.089Z</time>
      </trkpt>
      <trkpt lat="44.82362" lon="0.56421">
        <ele>107</ele>
        <time>2021-10-12T13:02:54.028Z</time>
      </trkpt>
      <trkpt lat="44.8237" lon="0.56413">
        <ele>106</ele>
        <time>2021-10-12T13:03:01.028Z</time>
      </trkpt>
      <trkpt lat="44.82377" lon="0.56404">
        <ele>106</ele>
        <time>2021-10-12T13:03:07.029Z</time>
      </trkpt>
      <trkpt lat="44.82383" lon="0.56393">
        <ele>106</ele>
        <time>2021-10-12T13:03:14.030Z</time>
      </trkpt>
      <trkpt lat="44.82388" lon="0.56383">
        <ele>106</ele>
        <time>2021-10-12T13:03:21.029Z</time>
      </trkpt>
      <trkpt lat="44.82396" lon="0.56373">
        <ele>105</ele>
        <time>2021-10-12T13:03:30.030Z</time>
      </trkpt>
      <trkpt lat="44.82402" lon="0.56364">
        <ele>106</ele>
        <time>2021-10-12T13:03:36.036Z</time>
      </trkpt>
      <trkpt lat="44.82409" lon="0.56355">
        <ele>106</ele>
        <time>2021-10-12T13:03:43.030Z</time>
      </trkpt>
      <trkpt lat="44.82416" lon="0.56347">
        <ele>106</ele>
        <time>2021-10-12T13:03:50.024Z</time>
      </trkpt>
      <trkpt lat="44.82423" lon="0.56338">
        <ele>107</ele>
        <time>2021-10-12T13:03:59.028Z</time>
      </trkpt>
      <trkpt lat="44.82429" lon="0.56329">
        <ele>107</ele>
        <time>2021-10-12T13:04:07.029Z</time>
      </trkpt>
      <trkpt lat="44.82436" lon="0.56319">
        <ele>108</ele>
        <time>2021-10-12T13:04:15.085Z</time>
      </trkpt>
      <trkpt lat="44.82442" lon="0.56308">
        <ele>108</ele>
        <time>2021-10-12T13:04:22.040Z</time>
      </trkpt>
      <trkpt lat="44.82448" lon="0.56296">
        <ele>109</ele>
        <time>2021-10-12T13:04:29.035Z</time>
      </trkpt>
      <trkpt lat="44.82454" lon="0.56286">
        <ele>109</ele>
        <time>2021-10-12T13:04:36.038Z</time>
      </trkpt>
      <trkpt lat="44.82462" lon="0.56279">
        <ele>109</ele>
        <time>2021-10-12T13:04:44.048Z</time>
      </trkpt>
      <trkpt lat="44.82471" lon="0.56281">
        <ele>109</ele>
        <time>2021-10-12T13:04:52.037Z</time>
      </trkpt>
      <trkpt lat="44.82481" lon="0.56284">
        <ele>108</ele>
        <time>2021-10-12T13:05:01.033Z</time>
      </trkpt>
      <trkpt lat="44.8249" lon="0.56283">
        <ele>108</ele>
        <time>2021-10-12T13:05:10.044Z</time>
      </trkpt>
      <trkpt lat="44.825" lon="0.56279">
        <ele>108</ele>
        <time>2021-10-12T13:05:19.033Z</time>
      </trkpt>
      <trkpt lat="44.8251" lon="0.56278">
        <ele>108</ele>
        <time>2021-10-12T13:05:26.033Z</time>
      </trkpt>
      <trkpt lat="44.82519" lon="0.56277">
        <ele>109</ele>
        <time>2021-10-12T13:05:34.035Z</time>
      </trkpt>
      <trkpt lat="44.82524" lon="0.56283">
        <ele>111</ele>
        <time>2021-10-12T13:06:04.035Z</time>
      </trkpt>
      <trkpt lat="44.82524" lon="0.56283">
        <ele>111</ele>
        <time>2021-10-12T13:06:27.041Z</time>
      </trkpt>
      <trkpt lat="44.82527" lon="0.56287">
        <ele>112</ele>
        <time>2021-10-12T13:06:28.048Z</time>
      </trkpt>
      <trkpt lat="44.82529" lon="0.56285">
        <ele>112</ele>
        <time>2021-10-12T13:06:42.038Z</time>
      </trkpt>
      <trkpt lat="44.82529" lon="0.56285">
        <ele>112</ele>
        <time>2021-10-12T13:08:11.030Z</time>
      </trkpt>
      <trkpt lat="44.82531" lon="0.56291">
        <ele>111</ele>
        <time>2021-10-12T13:08:12.082Z</time>
      </trkpt>
      <trkpt lat="44.82533" lon="0.56304">
        <ele>111</ele>
        <time>2021-10-12T13:08:20.036Z</time>
      </trkpt>
      <trkpt lat="44.82532" lon="0.56318">
        <ele>111</ele>
        <time>2021-10-12T13:08:27.043Z</time>
      </trkpt>
      <trkpt lat="44.8253" lon="0.56332">
        <ele>111</ele>
        <time>2021-10-12T13:08:34.033Z</time>
      </trkpt>
      <trkpt lat="44.82529" lon="0.56346">
        <ele>111</ele>
        <time>2021-10-12T13:08:42.034Z</time>
      </trkpt>
      <trkpt lat="44.82527" lon="0.56359">
        <ele>111</ele>
        <time>2021-10-12T13:08:49.038Z</time>
      </trkpt>
      <trkpt lat="44.82528" lon="0.56373">
        <ele>112</ele>
        <time>2021-10-12T13:08:57.077Z</time>
      </trkpt>
      <trkpt lat="44.82527" lon="0.56386">
        <ele>112</ele>
        <time>2021-10-12T13:09:05.035Z</time>
      </trkpt>
      <trkpt lat="44.82526" lon="0.564">
        <ele>113</ele>
        <time>2021-10-12T13:09:13.038Z</time>
      </trkpt>
      <trkpt lat="44.82526" lon="0.56413">
        <ele>113</ele>
        <time>2021-10-12T13:09:22.032Z</time>
      </trkpt>
      <trkpt lat="44.82535" lon="0.56421">
        <ele>116</ele>
        <time>2021-10-12T13:09:48.033Z</time>
      </trkpt>
      <trkpt lat="44.82544" lon="0.56425">
        <ele>116</ele>
        <time>2021-10-12T13:09:54.033Z</time>
      </trkpt>
      <trkpt lat="44.82554" lon="0.56428">
        <ele>117</ele>
        <time>2021-10-12T13:10:00.036Z</time>
      </trkpt>
      <trkpt lat="44.82564" lon="0.56433">
        <ele>117</ele>
        <time>2021-10-12T13:10:06.092Z</time>
      </trkpt>
      <trkpt lat="44.82573" lon="0.56437">
        <ele>118</ele>
        <time>2021-10-12T13:10:12.076Z</time>
      </trkpt>
      <trkpt lat="44.82582" lon="0.56443">
        <ele>118</ele>
        <time>2021-10-12T13:10:19.036Z</time>
      </trkpt>
      <trkpt lat="44.82591" lon="0.56447">
        <ele>118</ele>
        <time>2021-10-12T13:10:25.037Z</time>
      </trkpt>
      <trkpt lat="44.82601" lon="0.56451">
        <ele>118</ele>
        <time>2021-10-12T13:10:32.036Z</time>
      </trkpt>
      <trkpt lat="44.8261" lon="0.56457">
        <ele>118</ele>
        <time>2021-10-12T13:10:39.036Z</time>
      </trkpt>
      <trkpt lat="44.82618" lon="0.56462">
        <ele>118</ele>
        <time>2021-10-12T13:10:46.035Z</time>
      </trkpt>
      <trkpt lat="44.82627" lon="0.56468">
        <ele>118</ele>
        <time>2021-10-12T13:10:53.077Z</time>
      </trkpt>
      <trkpt lat="44.82635" lon="0.56475">
        <ele>118</ele>
        <time>2021-10-12T13:11:00.045Z</time>
      </trkpt>
      <trkpt lat="44.82644" lon="0.56478">
        <ele>117</ele>
        <time>2021-10-12T13:11:07.036Z</time>
      </trkpt>
      <trkpt lat="44.82653" lon="0.56483">
        <ele>117</ele>
        <time>2021-10-12T13:11:14.033Z</time>
      </trkpt>
      <trkpt lat="44.82662" lon="0.56488">
        <ele>117</ele>
        <time>2021-10-12T13:11:21.036Z</time>
      </trkpt>
      <trkpt lat="44.82672" lon="0.5649">
        <ele>116</ele>
        <time>2021-10-12T13:11:29.034Z</time>
      </trkpt>
      <trkpt lat="44.82682" lon="0.56494">
        <ele>116</ele>
        <time>2021-10-12T13:11:37.035Z</time>
      </trkpt>
      <trkpt lat="44.82692" lon="0.56493">
        <ele>116</ele>
        <time>2021-10-12T13:11:45.091Z</time>
      </trkpt>
      <trkpt lat="44.82701" lon="0.56494">
        <ele>115</ele>
        <time>2021-10-12T13:11:54.034Z</time>
      </trkpt>
      <trkpt lat="44.8271" lon="0.56495">
        <ele>115</ele>
        <time>2021-10-12T13:12:01.039Z</time>
      </trkpt>
      <trkpt lat="44.82719" lon="0.56494">
        <ele>115</ele>
        <time>2021-10-12T13:12:08.033Z</time>
      </trkpt>
      <trkpt lat="44.82728" lon="0.56492">
        <ele>115</ele>
        <time>2021-10-12T13:12:16.033Z</time>
      </trkpt>
      <trkpt lat="44.82738" lon="0.56489">
        <ele>114</ele>
        <time>2021-10-12T13:12:23.033Z</time>
      </trkpt>
      <trkpt lat="44.82746" lon="0.56484">
        <ele>114</ele>
        <time>2021-10-12T13:12:31.076Z</time>
      </trkpt>
      <trkpt lat="44.82752" lon="0.56474">
        <ele>114</ele>
        <time>2021-10-12T13:12:38.041Z</time>
      </trkpt>
      <trkpt lat="44.82758" lon="0.56463">
        <ele>113</ele>
        <time>2021-10-12T13:12:45.032Z</time>
      </trkpt>
      <trkpt lat="44.82764" lon="0.56453">
        <ele>113</ele>
        <time>2021-10-12T13:12:51.035Z</time>
      </trkpt>
      <trkpt lat="44.82771" lon="0.56444">
        <ele>112</ele>
        <time>2021-10-12T13:12:58.042Z</time>
      </trkpt>
      <trkpt lat="44.82779" lon="0.56436">
        <ele>111</ele>
        <time>2021-10-12T13:13:05.032Z</time>
      </trkpt>
      <trkpt lat="44.82789" lon="0.56433">
        <ele>111</ele>
        <time>2021-10-12T13:13:13.036Z</time>
      </trkpt>
      <trkpt lat="44.82798" lon="0.56437">
        <ele>110</ele>
        <time>2021-10-12T13:13:22.034Z</time>
      </trkpt>
      <trkpt lat="44.82804" lon="0.56447">
        <ele>110</ele>
        <time>2021-10-12T13:13:29.038Z</time>
      </trkpt>
      <trkpt lat="44.82807" lon="0.56459">
        <ele>109</ele>
        <time>2021-10-12T13:13:35.039Z</time>
      </trkpt>
      <trkpt lat="44.82808" lon="0.56472">
        <ele>109</ele>
        <time>2021-10-12T13:13:44.038Z</time>
      </trkpt>
      <trkpt lat="44.82809" lon="0.56486">
        <ele>109</ele>
        <time>2021-10-12T13:13:52.030Z</time>
      </trkpt>
      <trkpt lat="44.82812" lon="0.565">
        <ele>109</ele>
        <time>2021-10-12T13:14:01.096Z</time>
      </trkpt>
      <trkpt lat="44.82812" lon="0.56513">
        <ele>109</ele>
        <time>2021-10-12T13:14:09.038Z</time>
      </trkpt>
      <trkpt lat="44.82814" lon="0.56526">
        <ele>110</ele>
        <time>2021-10-12T13:14:16.038Z</time>
      </trkpt>
      <trkpt lat="44.82819" lon="0.56536">
        <ele>110</ele>
        <time>2021-10-12T13:14:23.038Z</time>
      </trkpt>
      <trkpt lat="44.8282" lon="0.56549">
        <ele>111</ele>
        <time>2021-10-12T13:14:30.043Z</time>
      </trkpt>
      <trkpt lat="44.82814" lon="0.56558">
        <ele>112</ele>
        <time>2021-10-12T13:14:38.038Z</time>
      </trkpt>
      <trkpt lat="44.8281" lon="0.56571">
        <ele>113</ele>
        <time>2021-10-12T13:14:48.039Z</time>
      </trkpt>
      <trkpt lat="44.82813" lon="0.56584">
        <ele>114</ele>
        <time>2021-10-12T13:15:02.038Z</time>
      </trkpt>
      <trkpt lat="44.82812" lon="0.56598">
        <ele>114</ele>
        <time>2021-10-12T13:15:09.040Z</time>
      </trkpt>
      <trkpt lat="44.82807" lon="0.56609">
        <ele>113</ele>
        <time>2021-10-12T13:15:15.035Z</time>
      </trkpt>
      <trkpt lat="44.82803" lon="0.56621">
        <ele>113</ele>
        <time>2021-10-12T13:15:22.040Z</time>
      </trkpt>
      <trkpt lat="44.82803" lon="0.56634">
        <ele>112</ele>
        <time>2021-10-12T13:15:33.079Z</time>
      </trkpt>
      <trkpt lat="44.82807" lon="0.56646">
        <ele>112</ele>
        <time>2021-10-12T13:15:39.105Z</time>
      </trkpt>
      <trkpt lat="44.82807" lon="0.5666">
        <ele>113</ele>
        <time>2021-10-12T13:15:46.046Z</time>
      </trkpt>
      <trkpt lat="44.8281" lon="0.56672">
        <ele>113</ele>
        <time>2021-10-12T13:15:54.042Z</time>
      </trkpt>
      <trkpt lat="44.82819" lon="0.56677">
        <ele>113</ele>
        <time>2021-10-12T13:16:04.038Z</time>
      </trkpt>
      <trkpt lat="44.82828" lon="0.5668">
        <ele>114</ele>
        <time>2021-10-12T13:16:14.076Z</time>
      </trkpt>
      <trkpt lat="44.82837" lon="0.5668">
        <ele>115</ele>
        <time>2021-10-12T13:16:21.036Z</time>
      </trkpt>
      <trkpt lat="44.82847" lon="0.56681">
        <ele>115</ele>
        <time>2021-10-12T13:16:28.037Z</time>
      </trkpt>
      <trkpt lat="44.82857" lon="0.56684">
        <ele>116</ele>
        <time>2021-10-12T13:16:35.035Z</time>
      </trkpt>
      <trkpt lat="44.82867" lon="0.56687">
        <ele>116</ele>
        <time>2021-10-12T13:16:42.037Z</time>
      </trkpt>
      <trkpt lat="44.82875" lon="0.56693">
        <ele>116</ele>
        <time>2021-10-12T13:16:47.038Z</time>
      </trkpt>
      <trkpt lat="44.82885" lon="0.56697">
        <ele>115</ele>
        <time>2021-10-12T13:16:54.084Z</time>
      </trkpt>
      <trkpt lat="44.82894" lon="0.56699">
        <ele>113</ele>
        <time>2021-10-12T13:17:02.038Z</time>
      </trkpt>
      <trkpt lat="44.82904" lon="0.56702">
        <ele>112</ele>
        <time>2021-10-12T13:17:09.039Z</time>
      </trkpt>
      <trkpt lat="44.82913" lon="0.56703">
        <ele>110</ele>
        <time>2021-10-12T13:17:16.039Z</time>
      </trkpt>
      <trkpt lat="44.82922" lon="0.56706">
        <ele>108</ele>
        <time>2021-10-12T13:17:23.040Z</time>
      </trkpt>
      <trkpt lat="44.82932" lon="0.56709">
        <ele>106</ele>
        <time>2021-10-12T13:17:29.080Z</time>
      </trkpt>
      <trkpt lat="44.82941" lon="0.56714">
        <ele>105</ele>
        <time>2021-10-12T13:17:36.039Z</time>
      </trkpt>
      <trkpt lat="44.82949" lon="0.56718">
        <ele>105</ele>
        <time>2021-10-12T13:17:44.042Z</time>
      </trkpt>
      <trkpt lat="44.82958" lon="0.56719">
        <ele>104</ele>
        <time>2021-10-12T13:17:52.081Z</time>
      </trkpt>
      <trkpt lat="44.82968" lon="0.56722">
        <ele>103</ele>
        <time>2021-10-12T13:18:01.040Z</time>
      </trkpt>
      <trkpt lat="44.82978" lon="0.56723">
        <ele>103</ele>
        <time>2021-10-12T13:18:08.045Z</time>
      </trkpt>
      <trkpt lat="44.82988" lon="0.56727">
        <ele>102</ele>
        <time>2021-10-12T13:18:16.040Z</time>
      </trkpt>
      <trkpt lat="44.82996" lon="0.56733">
        <ele>102</ele>
        <time>2021-10-12T13:18:25.057Z</time>
      </trkpt>
      <trkpt lat="44.83004" lon="0.56739">
        <ele>101</ele>
        <time>2021-10-12T13:18:33.042Z</time>
      </trkpt>
      <trkpt lat="44.83013" lon="0.56749">
        <ele>101</ele>
        <time>2021-10-12T13:18:41.045Z</time>
      </trkpt>
      <trkpt lat="44.8302" lon="0.56758">
        <ele>101</ele>
        <time>2021-10-12T13:18:48.039Z</time>
      </trkpt>
      <trkpt lat="44.83028" lon="0.56766">
        <ele>101</ele>
        <time>2021-10-12T13:18:55.085Z</time>
      </trkpt>
      <trkpt lat="44.83035" lon="0.56776">
        <ele>101</ele>
        <time>2021-10-12T13:19:02.038Z</time>
      </trkpt>
      <trkpt lat="44.83041" lon="0.56786">
        <ele>100</ele>
        <time>2021-10-12T13:19:09.039Z</time>
      </trkpt>
      <trkpt lat="44.83048" lon="0.56795">
        <ele>100</ele>
        <time>2021-10-12T13:19:16.037Z</time>
      </trkpt>
      <trkpt lat="44.83055" lon="0.56805">
        <ele>100</ele>
        <time>2021-10-12T13:19:23.052Z</time>
      </trkpt>
      <trkpt lat="44.83062" lon="0.56815">
        <ele>100</ele>
        <time>2021-10-12T13:19:30.038Z</time>
      </trkpt>
      <trkpt lat="44.8307" lon="0.56823">
        <ele>100</ele>
        <time>2021-10-12T13:19:36.055Z</time>
      </trkpt>
      <trkpt lat="44.83077" lon="0.56832">
        <ele>100</ele>
        <time>2021-10-12T13:19:42.043Z</time>
      </trkpt>
      <trkpt lat="44.83084" lon="0.56841">
        <ele>100</ele>
        <time>2021-10-12T13:19:49.046Z</time>
      </trkpt>
      <trkpt lat="44.83092" lon="0.56848">
        <ele>100</ele>
        <time>2021-10-12T13:19:56.040Z</time>
      </trkpt>
      <trkpt lat="44.831" lon="0.56856">
        <ele>99</ele>
        <time>2021-10-12T13:20:04.079Z</time>
      </trkpt>
      <trkpt lat="44.83107" lon="0.56865">
        <ele>99</ele>
        <time>2021-10-12T13:20:11.042Z</time>
      </trkpt>
      <trkpt lat="44.83115" lon="0.56872">
        <ele>98</ele>
        <time>2021-10-12T13:20:19.040Z</time>
      </trkpt>
      <trkpt lat="44.83123" lon="0.5688">
        <ele>98</ele>
        <time>2021-10-12T13:20:28.073Z</time>
      </trkpt>
      <trkpt lat="44.83131" lon="0.56888">
        <ele>98</ele>
        <time>2021-10-12T13:20:36.046Z</time>
      </trkpt>
      <trkpt lat="44.8314" lon="0.56892">
        <ele>97</ele>
        <time>2021-10-12T13:20:44.041Z</time>
      </trkpt>
      <trkpt lat="44.8315" lon="0.56887">
        <ele>97</ele>
        <time>2021-10-12T13:20:55.041Z</time>
      </trkpt>
      <trkpt lat="44.83159" lon="0.56883">
        <ele>97</ele>
        <time>2021-10-12T13:21:06.039Z</time>
      </trkpt>
      <trkpt lat="44.83168" lon="0.56878">
        <ele>97</ele>
        <time>2021-10-12T13:21:17.044Z</time>
      </trkpt>
      <trkpt lat="44.83177" lon="0.56871">
        <ele>97</ele>
        <time>2021-10-12T13:21:24.038Z</time>
      </trkpt>
      <trkpt lat="44.83186" lon="0.56867">
        <ele>98</ele>
        <time>2021-10-12T13:21:32.050Z</time>
      </trkpt>
      <trkpt lat="44.83195" lon="0.56861">
        <ele>98</ele>
        <time>2021-10-12T13:21:40.043Z</time>
      </trkpt>
      <trkpt lat="44.83204" lon="0.56856">
        <ele>98</ele>
        <time>2021-10-12T13:21:49.084Z</time>
      </trkpt>
      <trkpt lat="44.83212" lon="0.56851">
        <ele>98</ele>
        <time>2021-10-12T13:21:55.042Z</time>
      </trkpt>
      <trkpt lat="44.83222" lon="0.5685">
        <ele>98</ele>
        <time>2021-10-12T13:22:02.041Z</time>
      </trkpt>
      <trkpt lat="44.83231" lon="0.56851">
        <ele>98</ele>
        <time>2021-10-12T13:22:09.039Z</time>
      </trkpt>
      <trkpt lat="44.83241" lon="0.56851">
        <ele>98</ele>
        <time>2021-10-12T13:22:16.040Z</time>
      </trkpt>
      <trkpt lat="44.8325" lon="0.56853">
        <ele>98</ele>
        <time>2021-10-12T13:22:23.043Z</time>
      </trkpt>
      <trkpt lat="44.8326" lon="0.56856">
        <ele>98</ele>
        <time>2021-10-12T13:22:36.047Z</time>
      </trkpt>
      <trkpt lat="44.8327" lon="0.56857">
        <ele>97</ele>
        <time>2021-10-12T13:22:43.044Z</time>
      </trkpt>
      <trkpt lat="44.83279" lon="0.56858">
        <ele>97</ele>
        <time>2021-10-12T13:22:49.043Z</time>
      </trkpt>
      <trkpt lat="44.83289" lon="0.5686">
        <ele>97</ele>
        <time>2021-10-12T13:22:56.040Z</time>
      </trkpt>
      <trkpt lat="44.83298" lon="0.56864">
        <ele>97</ele>
        <time>2021-10-12T13:23:03.074Z</time>
      </trkpt>
      <trkpt lat="44.83307" lon="0.56868">
        <ele>97</ele>
        <time>2021-10-12T13:23:10.037Z</time>
      </trkpt>
      <trkpt lat="44.83316" lon="0.56872">
        <ele>97</ele>
        <time>2021-10-12T13:23:17.043Z</time>
      </trkpt>
      <trkpt lat="44.83325" lon="0.56881">
        <ele>98</ele>
        <time>2021-10-12T13:23:23.043Z</time>
      </trkpt>
      <trkpt lat="44.83334" lon="0.56886">
        <ele>98</ele>
        <time>2021-10-12T13:23:29.032Z</time>
      </trkpt>
      <trkpt lat="44.83343" lon="0.56892">
        <ele>99</ele>
        <time>2021-10-12T13:23:36.042Z</time>
      </trkpt>
      <trkpt lat="44.83353" lon="0.56898">
        <ele>99</ele>
        <time>2021-10-12T13:23:44.042Z</time>
      </trkpt>
      <trkpt lat="44.83361" lon="0.56903">
        <ele>100</ele>
        <time>2021-10-12T13:23:51.041Z</time>
      </trkpt>
      <trkpt lat="44.8337" lon="0.56908">
        <ele>101</ele>
        <time>2021-10-12T13:23:59.045Z</time>
      </trkpt>
      <trkpt lat="44.83378" lon="0.56915">
        <ele>101</ele>
        <time>2021-10-12T13:24:07.040Z</time>
      </trkpt>
      <trkpt lat="44.83387" lon="0.56916">
        <ele>102</ele>
        <time>2021-10-12T13:24:13.039Z</time>
      </trkpt>
      <trkpt lat="44.83397" lon="0.56919">
        <ele>102</ele>
        <time>2021-10-12T13:24:19.044Z</time>
      </trkpt>
      <trkpt lat="44.83407" lon="0.56923">
        <ele>102</ele>
        <time>2021-10-12T13:24:25.040Z</time>
      </trkpt>
      <trkpt lat="44.83416" lon="0.56928">
        <ele>103</ele>
        <time>2021-10-12T13:24:32.037Z</time>
      </trkpt>
      <trkpt lat="44.83425" lon="0.56932">
        <ele>103</ele>
        <time>2021-10-12T13:24:40.038Z</time>
      </trkpt>
      <trkpt lat="44.83435" lon="0.56937">
        <ele>103</ele>
        <time>2021-10-12T13:24:48.041Z</time>
      </trkpt>
      <trkpt lat="44.83445" lon="0.56939">
        <ele>103</ele>
        <time>2021-10-12T13:24:54.039Z</time>
      </trkpt>
      <trkpt lat="44.83455" lon="0.56942">
        <ele>103</ele>
        <time>2021-10-12T13:25:01.058Z</time>
      </trkpt>
      <trkpt lat="44.83463" lon="0.56947">
        <ele>103</ele>
        <time>2021-10-12T13:25:07.048Z</time>
      </trkpt>
      <trkpt lat="44.83473" lon="0.56952">
        <ele>102</ele>
        <time>2021-10-12T13:25:14.040Z</time>
      </trkpt>
      <trkpt lat="44.83482" lon="0.56955">
        <ele>101</ele>
        <time>2021-10-12T13:25:21.040Z</time>
      </trkpt>
      <trkpt lat="44.83491" lon="0.5696">
        <ele>100</ele>
        <time>2021-10-12T13:25:28.046Z</time>
      </trkpt>
      <trkpt lat="44.83502" lon="0.56963">
        <ele>99</ele>
        <time>2021-10-12T13:25:36.043Z</time>
      </trkpt>
      <trkpt lat="44.83511" lon="0.56965">
        <ele>99</ele>
        <time>2021-10-12T13:25:43.050Z</time>
      </trkpt>
      <trkpt lat="44.8352" lon="0.56967">
        <ele>98</ele>
        <time>2021-10-12T13:25:50.046Z</time>
      </trkpt>
      <trkpt lat="44.83529" lon="0.56969">
        <ele>98</ele>
        <time>2021-10-12T13:25:57.088Z</time>
      </trkpt>
      <trkpt lat="44.83539" lon="0.5697">
        <ele>97</ele>
        <time>2021-10-12T13:26:04.044Z</time>
      </trkpt>
      <trkpt lat="44.83549" lon="0.56972">
        <ele>97</ele>
        <time>2021-10-12T13:26:11.045Z</time>
      </trkpt>
      <trkpt lat="44.83559" lon="0.56974">
        <ele>97</ele>
        <time>2021-10-12T13:26:18.044Z</time>
      </trkpt>
      <trkpt lat="44.83568" lon="0.56975">
        <ele>96</ele>
        <time>2021-10-12T13:26:25.086Z</time>
      </trkpt>
      <trkpt lat="44.83577" lon="0.56977">
        <ele>96</ele>
        <time>2021-10-12T13:26:32.045Z</time>
      </trkpt>
      <trkpt lat="44.83586" lon="0.56978">
        <ele>96</ele>
        <time>2021-10-12T13:26:39.044Z</time>
      </trkpt>
      <trkpt lat="44.83596" lon="0.5698">
        <ele>96</ele>
        <time>2021-10-12T13:26:46.040Z</time>
      </trkpt>
      <trkpt lat="44.83601" lon="0.5698">
        <ele>96</ele>
        <time>2021-10-12T13:27:03.038Z</time>
      </trkpt>
      <trkpt lat="44.83601" lon="0.5698">
        <ele>96</ele>
        <time>2021-10-12T13:27:38.045Z</time>
      </trkpt>
      <trkpt lat="44.83605" lon="0.56981">
        <ele>96</ele>
        <time>2021-10-12T13:27:39.041Z</time>
      </trkpt>
      <trkpt lat="44.83614" lon="0.56985">
        <ele>96</ele>
        <time>2021-10-12T13:27:46.042Z</time>
      </trkpt>
      <trkpt lat="44.83623" lon="0.56989">
        <ele>96</ele>
        <time>2021-10-12T13:27:53.105Z</time>
      </trkpt>
      <trkpt lat="44.83633" lon="0.56992">
        <ele>96</ele>
        <time>2021-10-12T13:28:00.039Z</time>
      </trkpt>
      <trkpt lat="44.83643" lon="0.56988">
        <ele>96</ele>
        <time>2021-10-12T13:28:07.041Z</time>
      </trkpt>
      <trkpt lat="44.83652" lon="0.56982">
        <ele>96</ele>
        <time>2021-10-12T13:28:14.045Z</time>
      </trkpt>
      <trkpt lat="44.83659" lon="0.56975">
        <ele>96</ele>
        <time>2021-10-12T13:28:21.046Z</time>
      </trkpt>
      <trkpt lat="44.83667" lon="0.56966">
        <ele>96</ele>
        <time>2021-10-12T13:28:29.045Z</time>
      </trkpt>
      <trkpt lat="44.83674" lon="0.56957">
        <ele>96</ele>
        <time>2021-10-12T13:28:37.045Z</time>
      </trkpt>
      <trkpt lat="44.83681" lon="0.56948">
        <ele>96</ele>
        <time>2021-10-12T13:28:44.045Z</time>
      </trkpt>
      <trkpt lat="44.83687" lon="0.56936">
        <ele>97</ele>
        <time>2021-10-12T13:28:51.043Z</time>
      </trkpt>
      <trkpt lat="44.83693" lon="0.56925">
        <ele>96</ele>
        <time>2021-10-12T13:28:58.045Z</time>
      </trkpt>
      <trkpt lat="44.837" lon="0.56916">
        <ele>96</ele>
        <time>2021-10-12T13:29:06.047Z</time>
      </trkpt>
      <trkpt lat="44.83705" lon="0.56905">
        <ele>96</ele>
        <time>2021-10-12T13:29:12.042Z</time>
      </trkpt>
      <trkpt lat="44.83712" lon="0.56896">
        <ele>96</ele>
        <time>2021-10-12T13:29:18.045Z</time>
      </trkpt>
      <trkpt lat="44.8372" lon="0.56886">
        <ele>96</ele>
        <time>2021-10-12T13:29:27.044Z</time>
      </trkpt>
      <trkpt lat="44.83725" lon="0.56875">
        <ele>95</ele>
        <time>2021-10-12T13:29:34.047Z</time>
      </trkpt>
      <trkpt lat="44.83731" lon="0.56865">
        <ele>95</ele>
        <time>2021-10-12T13:29:42.099Z</time>
      </trkpt>
      <trkpt lat="44.83736" lon="0.56855">
        <ele>95</ele>
        <time>2021-10-12T13:29:50.045Z</time>
      </trkpt>
      <trkpt lat="44.83741" lon="0.56843">
        <ele>96</ele>
        <time>2021-10-12T13:29:57.043Z</time>
      </trkpt>
      <trkpt lat="44.83747" lon="0.56832">
        <ele>96</ele>
        <time>2021-10-12T13:30:04.041Z</time>
      </trkpt>
      <trkpt lat="44.83752" lon="0.56821">
        <ele>96</ele>
        <time>2021-10-12T13:30:11.044Z</time>
      </trkpt>
      <trkpt lat="44.83759" lon="0.5681">
        <ele>96</ele>
        <time>2021-10-12T13:30:19.047Z</time>
      </trkpt>
      <trkpt lat="44.83766" lon="0.568">
        <ele>96</ele>
        <time>2021-10-12T13:30:27.047Z</time>
      </trkpt>
      <trkpt lat="44.83773" lon="0.56789">
        <ele>96</ele>
        <time>2021-10-12T13:30:35.041Z</time>
      </trkpt>
      <trkpt lat="44.8378" lon="0.56781">
        <ele>96</ele>
        <time>2021-10-12T13:30:42.059Z</time>
      </trkpt>
      <trkpt lat="44.83789" lon="0.56775">
        <ele>96</ele>
        <time>2021-10-12T13:30:49.046Z</time>
      </trkpt>
      <trkpt lat="44.83798" lon="0.56771">
        <ele>96</ele>
        <time>2021-10-12T13:30:57.083Z</time>
      </trkpt>
      <trkpt lat="44.83808" lon="0.56768">
        <ele>96</ele>
        <time>2021-10-12T13:31:05.046Z</time>
      </trkpt>
      <trkpt lat="44.83818" lon="0.56765">
        <ele>96</ele>
        <time>2021-10-12T13:31:13.048Z</time>
      </trkpt>
      <trkpt lat="44.83827" lon="0.56764">
        <ele>96</ele>
        <time>2021-10-12T13:31:22.046Z</time>
      </trkpt>
      <trkpt lat="44.83837" lon="0.56761">
        <ele>96</ele>
        <time>2021-10-12T13:31:29.046Z</time>
      </trkpt>
      <trkpt lat="44.83846" lon="0.56758">
        <ele>96</ele>
        <time>2021-10-12T13:31:34.063Z</time>
      </trkpt>
      <trkpt lat="44.83856" lon="0.56754">
        <ele>95</ele>
        <time>2021-10-12T13:31:39.093Z</time>
      </trkpt>
      <trkpt lat="44.83865" lon="0.56752">
        <ele>95</ele>
        <time>2021-10-12T13:31:44.045Z</time>
      </trkpt>
      <trkpt lat="44.83874" lon="0.56751">
        <ele>95</ele>
        <time>2021-10-12T13:31:49.044Z</time>
      </trkpt>
      <trkpt lat="44.83884" lon="0.56749">
        <ele>95</ele>
        <time>2021-10-12T13:31:55.045Z</time>
      </trkpt>
      <trkpt lat="44.83893" lon="0.56748">
        <ele>95</ele>
        <time>2021-10-12T13:32:01.053Z</time>
      </trkpt>
      <trkpt lat="44.83903" lon="0.56745">
        <ele>96</ele>
        <time>2021-10-12T13:32:07.048Z</time>
      </trkpt>
      <trkpt lat="44.83913" lon="0.56744">
        <ele>96</ele>
        <time>2021-10-12T13:32:14.046Z</time>
      </trkpt>
      <trkpt lat="44.83922" lon="0.56745">
        <ele>96</ele>
        <time>2021-10-12T13:32:26.045Z</time>
      </trkpt>
      <trkpt lat="44.83928" lon="0.56748">
        <ele>97</ele>
        <time>2021-10-12T13:32:44.041Z</time>
      </trkpt>
      <trkpt lat="44.83928" lon="0.56748">
        <ele>97</ele>
        <time>2021-10-12T13:32:47.043Z</time>
      </trkpt>
      <trkpt lat="44.83932" lon="0.56746">
        <ele>97</ele>
        <time>2021-10-12T13:32:48.049Z</time>
      </trkpt>
      <trkpt lat="44.83942" lon="0.56741">
        <ele>97</ele>
        <time>2021-10-12T13:32:54.048Z</time>
      </trkpt>
      <trkpt lat="44.83952" lon="0.56738">
        <ele>96</ele>
        <time>2021-10-12T13:33:01.102Z</time>
      </trkpt>
      <trkpt lat="44.83962" lon="0.56735">
        <ele>96</ele>
        <time>2021-10-12T13:33:08.044Z</time>
      </trkpt>
      <trkpt lat="44.83971" lon="0.56731">
        <ele>96</ele>
        <time>2021-10-12T13:33:14.042Z</time>
      </trkpt>
      <trkpt lat="44.8398" lon="0.56726">
        <ele>96</ele>
        <time>2021-10-12T13:33:21.045Z</time>
      </trkpt>
      <trkpt lat="44.83989" lon="0.56725">
        <ele>95</ele>
        <time>2021-10-12T13:33:27.041Z</time>
      </trkpt>
      <trkpt lat="44.83999" lon="0.56721">
        <ele>95</ele>
        <time>2021-10-12T13:33:34.047Z</time>
      </trkpt>
      <trkpt lat="44.84008" lon="0.56717">
        <ele>95</ele>
        <time>2021-10-12T13:33:40.044Z</time>
      </trkpt>
      <trkpt lat="44.84017" lon="0.56714">
        <ele>95</ele>
        <time>2021-10-12T13:33:46.048Z</time>
      </trkpt>
      <trkpt lat="44.84026" lon="0.56709">
        <ele>95</ele>
        <time>2021-10-12T13:33:52.045Z</time>
      </trkpt>
      <trkpt lat="44.84033" lon="0.56698">
        <ele>95</ele>
        <time>2021-10-12T13:33:58.048Z</time>
      </trkpt>
      <trkpt lat="44.84037" lon="0.56687">
        <ele>95</ele>
        <time>2021-10-12T13:34:03.046Z</time>
      </trkpt>
      <trkpt lat="44.84041" lon="0.56676">
        <ele>95</ele>
        <time>2021-10-12T13:34:08.046Z</time>
      </trkpt>
      <trkpt lat="44.84044" lon="0.56662">
        <ele>95</ele>
        <time>2021-10-12T13:34:14.037Z</time>
      </trkpt>
      <trkpt lat="44.84046" lon="0.56648">
        <ele>95</ele>
        <time>2021-10-12T13:34:20.046Z</time>
      </trkpt>
      <trkpt lat="44.84048" lon="0.56635">
        <ele>94</ele>
        <time>2021-10-12T13:34:26.045Z</time>
      </trkpt>
      <trkpt lat="44.84051" lon="0.56622">
        <ele>94</ele>
        <time>2021-10-12T13:34:32.040Z</time>
      </trkpt>
      <trkpt lat="44.84054" lon="0.56609">
        <ele>93</ele>
        <time>2021-10-12T13:34:40.085Z</time>
      </trkpt>
      <trkpt lat="44.84059" lon="0.56596">
        <ele>93</ele>
        <time>2021-10-12T13:34:47.046Z</time>
      </trkpt>
      <trkpt lat="44.84065" lon="0.56583">
        <ele>92</ele>
        <time>2021-10-12T13:34:54.048Z</time>
      </trkpt>
      <trkpt lat="44.84071" lon="0.56571">
        <ele>92</ele>
        <time>2021-10-12T13:35:01.040Z</time>
      </trkpt>
      <trkpt lat="44.84076" lon="0.56561">
        <ele>91</ele>
        <time>2021-10-12T13:35:07.048Z</time>
      </trkpt>
      <trkpt lat="44.84083" lon="0.5655">
        <ele>91</ele>
        <time>2021-10-12T13:35:14.043Z</time>
      </trkpt>
      <trkpt lat="44.84089" lon="0.5654">
        <ele>91</ele>
        <time>2021-10-12T13:35:21.083Z</time>
      </trkpt>
      <trkpt lat="44.84095" lon="0.5653">
        <ele>91</ele>
        <time>2021-10-12T13:35:28.050Z</time>
      </trkpt>
      <trkpt lat="44.84103" lon="0.56522">
        <ele>91</ele>
        <time>2021-10-12T13:35:35.061Z</time>
      </trkpt>
      <trkpt lat="44.84111" lon="0.56515">
        <ele>91</ele>
        <time>2021-10-12T13:35:41.048Z</time>
      </trkpt>
      <trkpt lat="44.84118" lon="0.56507">
        <ele>91</ele>
        <time>2021-10-12T13:35:48.044Z</time>
      </trkpt>
      <trkpt lat="44.84126" lon="0.56499">
        <ele>91</ele>
        <time>2021-10-12T13:35:54.043Z</time>
      </trkpt>
      <trkpt lat="44.84136" lon="0.56495">
        <ele>91</ele>
        <time>2021-10-12T13:36:00.042Z</time>
      </trkpt>
      <trkpt lat="44.84146" lon="0.5649">
        <ele>91</ele>
        <time>2021-10-12T13:36:07.080Z</time>
      </trkpt>
      <trkpt lat="44.84154" lon="0.56486">
        <ele>91</ele>
        <time>2021-10-12T13:36:13.045Z</time>
      </trkpt>
      <trkpt lat="44.84163" lon="0.56482">
        <ele>91</ele>
        <time>2021-10-12T13:36:19.045Z</time>
      </trkpt>
      <trkpt lat="44.84172" lon="0.56476">
        <ele>91</ele>
        <time>2021-10-12T13:36:26.042Z</time>
      </trkpt>
      <trkpt lat="44.8418" lon="0.5647">
        <ele>91</ele>
        <time>2021-10-12T13:36:33.049Z</time>
      </trkpt>
      <trkpt lat="44.84188" lon="0.56462">
        <ele>91</ele>
        <time>2021-10-12T13:36:41.080Z</time>
      </trkpt>
      <trkpt lat="44.84196" lon="0.56452">
        <ele>91</ele>
        <time>2021-10-12T13:36:49.047Z</time>
      </trkpt>
      <trkpt lat="44.84202" lon="0.56442">
        <ele>90</ele>
        <time>2021-10-12T13:36:55.048Z</time>
      </trkpt>
      <trkpt lat="44.84209" lon="0.56433">
        <ele>90</ele>
        <time>2021-10-12T13:37:02.045Z</time>
      </trkpt>
      <trkpt lat="44.84217" lon="0.56424">
        <ele>90</ele>
        <time>2021-10-12T13:37:09.048Z</time>
      </trkpt>
      <trkpt lat="44.84223" lon="0.56413">
        <ele>90</ele>
        <time>2021-10-12T13:37:15.045Z</time>
      </trkpt>
      <trkpt lat="44.84229" lon="0.56404">
        <ele>89</ele>
        <time>2021-10-12T13:37:22.078Z</time>
      </trkpt>
      <trkpt lat="44.84235" lon="0.56392">
        <ele>89</ele>
        <time>2021-10-12T13:37:30.046Z</time>
      </trkpt>
      <trkpt lat="44.84241" lon="0.56382">
        <ele>90</ele>
        <time>2021-10-12T13:37:37.041Z</time>
      </trkpt>
      <trkpt lat="44.84246" lon="0.56369">
        <ele>90</ele>
        <time>2021-10-12T13:37:44.043Z</time>
      </trkpt>
      <trkpt lat="44.84252" lon="0.56359">
        <ele>90</ele>
        <time>2021-10-12T13:37:52.048Z</time>
      </trkpt>
      <trkpt lat="44.84258" lon="0.56347">
        <ele>90</ele>
        <time>2021-10-12T13:37:59.045Z</time>
      </trkpt>
      <trkpt lat="44.84264" lon="0.56336">
        <ele>91</ele>
        <time>2021-10-12T13:38:06.046Z</time>
      </trkpt>
      <trkpt lat="44.8427" lon="0.56325">
        <ele>91</ele>
        <time>2021-10-12T13:38:12.043Z</time>
      </trkpt>
      <trkpt lat="44.84277" lon="0.56315">
        <ele>91</ele>
        <time>2021-10-12T13:38:18.041Z</time>
      </trkpt>
      <trkpt lat="44.84284" lon="0.56304">
        <ele>91</ele>
        <time>2021-10-12T13:38:24.044Z</time>
      </trkpt>
      <trkpt lat="44.84292" lon="0.56297">
        <ele>91</ele>
        <time>2021-10-12T13:38:30.045Z</time>
      </trkpt>
      <trkpt lat="44.84295" lon="0.56284">
        <ele>90</ele>
        <time>2021-10-12T13:38:37.045Z</time>
      </trkpt>
      <trkpt lat="44.84291" lon="0.56273">
        <ele>89</ele>
        <time>2021-10-12T13:38:44.087Z</time>
      </trkpt>
      <trkpt lat="44.84285" lon="0.56263">
        <ele>89</ele>
        <time>2021-10-12T13:38:51.048Z</time>
      </trkpt>
      <trkpt lat="44.84281" lon="0.56251">
        <ele>88</ele>
        <time>2021-10-12T13:38:58.043Z</time>
      </trkpt>
      <trkpt lat="44.84276" lon="0.56239">
        <ele>87</ele>
        <time>2021-10-12T13:39:05.046Z</time>
      </trkpt>
      <trkpt lat="44.84271" lon="0.56226">
        <ele>87</ele>
        <time>2021-10-12T13:39:12.042Z</time>
      </trkpt>
      <trkpt lat="44.84266" lon="0.56214">
        <ele>86</ele>
        <time>2021-10-12T13:39:19.043Z</time>
      </trkpt>
      <trkpt lat="44.8426" lon="0.56202">
        <ele>86</ele>
        <time>2021-10-12T13:39:26.044Z</time>
      </trkpt>
      <trkpt lat="44.84254" lon="0.5619">
        <ele>86</ele>
        <time>2021-10-12T13:39:34.049Z</time>
      </trkpt>
      <trkpt lat="44.84248" lon="0.5618">
        <ele>86</ele>
        <time>2021-10-12T13:39:42.084Z</time>
      </trkpt>
      <trkpt lat="44.84242" lon="0.56169">
        <ele>86</ele>
        <time>2021-10-12T13:39:49.050Z</time>
      </trkpt>
      <trkpt lat="44.84236" lon="0.56158">
        <ele>87</ele>
        <time>2021-10-12T13:39:56.050Z</time>
      </trkpt>
      <trkpt lat="44.84231" lon="0.56145">
        <ele>87</ele>
        <time>2021-10-12T13:40:03.045Z</time>
      </trkpt>
      <trkpt lat="44.84227" lon="0.56132">
        <ele>88</ele>
        <time>2021-10-12T13:40:10.047Z</time>
      </trkpt>
      <trkpt lat="44.84224" lon="0.56119">
        <ele>88</ele>
        <time>2021-10-12T13:40:17.045Z</time>
      </trkpt>
      <trkpt lat="44.8422" lon="0.56106">
        <ele>89</ele>
        <time>2021-10-12T13:40:24.050Z</time>
      </trkpt>
      <trkpt lat="44.84218" lon="0.56092">
        <ele>89</ele>
        <time>2021-10-12T13:40:31.043Z</time>
      </trkpt>
      <trkpt lat="44.84216" lon="0.56078">
        <ele>90</ele>
        <time>2021-10-12T13:40:38.045Z</time>
      </trkpt>
      <trkpt lat="44.84215" lon="0.56063">
        <ele>90</ele>
        <time>2021-10-12T13:40:45.082Z</time>
      </trkpt>
      <trkpt lat="44.84215" lon="0.5605">
        <ele>90</ele>
        <time>2021-10-12T13:40:52.046Z</time>
      </trkpt>
      <trkpt lat="44.84214" lon="0.56036">
        <ele>90</ele>
        <time>2021-10-12T13:40:59.045Z</time>
      </trkpt>
      <trkpt lat="44.84213" lon="0.56022">
        <ele>90</ele>
        <time>2021-10-12T13:41:06.047Z</time>
      </trkpt>
      <trkpt lat="44.84212" lon="0.56008">
        <ele>90</ele>
        <time>2021-10-12T13:41:13.053Z</time>
      </trkpt>
      <trkpt lat="44.84211" lon="0.55994">
        <ele>89</ele>
        <time>2021-10-12T13:41:20.100Z</time>
      </trkpt>
      <trkpt lat="44.84211" lon="0.55979">
        <ele>89</ele>
        <time>2021-10-12T13:41:27.044Z</time>
      </trkpt>
      <trkpt lat="44.84211" lon="0.55965">
        <ele>90</ele>
        <time>2021-10-12T13:41:34.043Z</time>
      </trkpt>
      <trkpt lat="44.8421" lon="0.55952">
        <ele>90</ele>
        <time>2021-10-12T13:41:41.053Z</time>
      </trkpt>
      <trkpt lat="44.84209" lon="0.55938">
        <ele>90</ele>
        <time>2021-10-12T13:41:49.044Z</time>
      </trkpt>
      <trkpt lat="44.84207" lon="0.55924">
        <ele>90</ele>
        <time>2021-10-12T13:41:57.047Z</time>
      </trkpt>
      <trkpt lat="44.84207" lon="0.55911">
        <ele>91</ele>
        <time>2021-10-12T13:42:04.046Z</time>
      </trkpt>
      <trkpt lat="44.84207" lon="0.55897">
        <ele>91</ele>
        <time>2021-10-12T13:42:12.048Z</time>
      </trkpt>
      <trkpt lat="44.84207" lon="0.55883">
        <ele>92</ele>
        <time>2021-10-12T13:42:19.046Z</time>
      </trkpt>
      <trkpt lat="44.84207" lon="0.55872">
        <ele>92</ele>
        <time>2021-10-12T13:42:35.045Z</time>
      </trkpt>
      <trkpt lat="44.84207" lon="0.55872">
        <ele>92</ele>
        <time>2021-10-12T13:42:42.083Z</time>
      </trkpt>
      <trkpt lat="44.84207" lon="0.55865">
        <ele>92</ele>
        <time>2021-10-12T13:42:43.051Z</time>
      </trkpt>
      <trkpt lat="44.84206" lon="0.55851">
        <ele>92</ele>
        <time>2021-10-12T13:42:55.046Z</time>
      </trkpt>
      <trkpt lat="44.84206" lon="0.55838">
        <ele>93</ele>
        <time>2021-10-12T13:43:06.048Z</time>
      </trkpt>
      <trkpt lat="44.84206" lon="0.55825">
        <ele>93</ele>
        <time>2021-10-12T13:43:12.049Z</time>
      </trkpt>
      <trkpt lat="44.84206" lon="0.55811">
        <ele>93</ele>
        <time>2021-10-12T13:43:19.046Z</time>
      </trkpt>
      <trkpt lat="44.84206" lon="0.55797">
        <ele>93</ele>
        <time>2021-10-12T13:43:26.045Z</time>
      </trkpt>
      <trkpt lat="44.84206" lon="0.55782">
        <ele>93</ele>
        <time>2021-10-12T13:43:34.044Z</time>
      </trkpt>
      <trkpt lat="44.84206" lon="0.55769">
        <ele>93</ele>
        <time>2021-10-12T13:43:41.029Z</time>
      </trkpt>
      <trkpt lat="44.84205" lon="0.55756">
        <ele>93</ele>
        <time>2021-10-12T13:43:48.047Z</time>
      </trkpt>
      <trkpt lat="44.84206" lon="0.55742">
        <ele>92</ele>
        <time>2021-10-12T13:43:55.048Z</time>
      </trkpt>
      <trkpt lat="44.84205" lon="0.55728">
        <ele>92</ele>
        <time>2021-10-12T13:44:02.048Z</time>
      </trkpt>
      <trkpt lat="44.84205" lon="0.55714">
        <ele>92</ele>
        <time>2021-10-12T13:44:09.049Z</time>
      </trkpt>
      <trkpt lat="44.84206" lon="0.557">
        <ele>92</ele>
        <time>2021-10-12T13:44:16.046Z</time>
      </trkpt>
      <trkpt lat="44.84206" lon="0.55687">
        <ele>92</ele>
        <time>2021-10-12T13:44:22.086Z</time>
      </trkpt>
      <trkpt lat="44.84207" lon="0.55673">
        <ele>91</ele>
        <time>2021-10-12T13:44:29.048Z</time>
      </trkpt>
      <trkpt lat="44.84207" lon="0.55659">
        <ele>91</ele>
        <time>2021-10-12T13:44:36.050Z</time>
      </trkpt>
      <trkpt lat="44.84206" lon="0.55646">
        <ele>91</ele>
        <time>2021-10-12T13:44:44.050Z</time>
      </trkpt>
      <trkpt lat="44.84205" lon="0.55633">
        <ele>91</ele>
        <time>2021-10-12T13:44:50.044Z</time>
      </trkpt>
      <trkpt lat="44.84205" lon="0.5562">
        <ele>91</ele>
        <time>2021-10-12T13:44:56.046Z</time>
      </trkpt>
      <trkpt lat="44.84205" lon="0.55606">
        <ele>90</ele>
        <time>2021-10-12T13:45:03.051Z</time>
      </trkpt>
      <trkpt lat="44.84205" lon="0.55592">
        <ele>90</ele>
        <time>2021-10-12T13:45:10.050Z</time>
      </trkpt>
      <trkpt lat="44.84206" lon="0.55579">
        <ele>90</ele>
        <time>2021-10-12T13:45:16.049Z</time>
      </trkpt>
      <trkpt lat="44.84212" lon="0.55568">
        <ele>90</ele>
        <time>2021-10-12T13:45:23.049Z</time>
      </trkpt>
      <trkpt lat="44.84219" lon="0.55559">
        <ele>90</ele>
        <time>2021-10-12T13:45:30.047Z</time>
      </trkpt>
      <trkpt lat="44.84227" lon="0.55551">
        <ele>90</ele>
        <time>2021-10-12T13:45:37.044Z</time>
      </trkpt>
      <trkpt lat="44.84235" lon="0.55542">
        <ele>89</ele>
        <time>2021-10-12T13:45:44.082Z</time>
      </trkpt>
      <trkpt lat="44.84243" lon="0.55534">
        <ele>89</ele>
        <time>2021-10-12T13:45:51.049Z</time>
      </trkpt>
      <trkpt lat="44.8425" lon="0.55524">
        <ele>89</ele>
        <time>2021-10-12T13:45:58.045Z</time>
      </trkpt>
      <trkpt lat="44.84257" lon="0.55513">
        <ele>89</ele>
        <time>2021-10-12T13:46:05.049Z</time>
      </trkpt>
      <trkpt lat="44.84263" lon="0.55503">
        <ele>88</ele>
        <time>2021-10-12T13:46:11.048Z</time>
      </trkpt>
      <trkpt lat="44.84268" lon="0.55492">
        <ele>88</ele>
        <time>2021-10-12T13:46:18.047Z</time>
      </trkpt>
      <trkpt lat="44.84274" lon="0.5548">
        <ele>88</ele>
        <time>2021-10-12T13:46:26.053Z</time>
      </trkpt>
      <trkpt lat="44.8428" lon="0.55469">
        <ele>88</ele>
        <time>2021-10-12T13:46:33.048Z</time>
      </trkpt>
      <trkpt lat="44.84286" lon="0.5546">
        <ele>88</ele>
        <time>2021-10-12T13:46:40.045Z</time>
      </trkpt>
      <trkpt lat="44.84293" lon="0.55448">
        <ele>88</ele>
        <time>2021-10-12T13:46:47.047Z</time>
      </trkpt>
      <trkpt lat="44.84298" lon="0.55436">
        <ele>88</ele>
        <time>2021-10-12T13:46:54.098Z</time>
      </trkpt>
      <trkpt lat="44.84304" lon="0.55424">
        <ele>88</ele>
        <time>2021-10-12T13:47:01.056Z</time>
      </trkpt>
      <trkpt lat="44.84309" lon="0.55412">
        <ele>88</ele>
        <time>2021-10-12T13:47:08.043Z</time>
      </trkpt>
      <trkpt lat="44.84313" lon="0.55401">
        <ele>88</ele>
        <time>2021-10-12T13:47:15.049Z</time>
      </trkpt>
      <trkpt lat="44.84317" lon="0.55388">
        <ele>88</ele>
        <time>2021-10-12T13:47:22.053Z</time>
      </trkpt>
      <trkpt lat="44.84321" lon="0.55375">
        <ele>88</ele>
        <time>2021-10-12T13:47:29.048Z</time>
      </trkpt>
      <trkpt lat="44.84326" lon="0.55364">
        <ele>87</ele>
        <time>2021-10-12T13:47:38.043Z</time>
      </trkpt>
      <trkpt lat="44.84332" lon="0.55353">
        <ele>87</ele>
        <time>2021-10-12T13:47:45.046Z</time>
      </trkpt>
      <trkpt lat="44.84337" lon="0.55343">
        <ele>87</ele>
        <time>2021-10-12T13:47:51.046Z</time>
      </trkpt>
      <trkpt lat="44.84347" lon="0.55337">
        <ele>87</ele>
        <time>2021-10-12T13:48:00.065Z</time>
      </trkpt>
      <trkpt lat="44.84356" lon="0.55331">
        <ele>86</ele>
        <time>2021-10-12T13:48:08.049Z</time>
      </trkpt>
      <trkpt lat="44.84366" lon="0.55327">
        <ele>86</ele>
        <time>2021-10-12T13:48:14.047Z</time>
      </trkpt>
      <trkpt lat="44.84376" lon="0.55327">
        <ele>85</ele>
        <time>2021-10-12T13:48:20.050Z</time>
      </trkpt>
      <trkpt lat="44.84385" lon="0.55328">
        <ele>85</ele>
        <time>2021-10-12T13:48:26.050Z</time>
      </trkpt>
      <trkpt lat="44.84394" lon="0.55329">
        <ele>84</ele>
        <time>2021-10-12T13:48:32.048Z</time>
      </trkpt>
      <trkpt lat="44.84404" lon="0.55332">
        <ele>83</ele>
        <time>2021-10-12T13:48:39.069Z</time>
      </trkpt>
      <trkpt lat="44.84413" lon="0.55332">
        <ele>83</ele>
        <time>2021-10-12T13:48:46.050Z</time>
      </trkpt>
      <trkpt lat="44.84424" lon="0.55331">
        <ele>82</ele>
        <time>2021-10-12T13:48:54.050Z</time>
      </trkpt>
      <trkpt lat="44.84433" lon="0.55332">
        <ele>82</ele>
        <time>2021-10-12T13:49:01.044Z</time>
      </trkpt>
      <trkpt lat="44.84443" lon="0.55331">
        <ele>82</ele>
        <time>2021-10-12T13:49:06.050Z</time>
      </trkpt>
      <trkpt lat="44.84453" lon="0.5533">
        <ele>81</ele>
        <time>2021-10-12T13:49:13.056Z</time>
      </trkpt>
      <trkpt lat="44.84462" lon="0.55328">
        <ele>81</ele>
        <time>2021-10-12T13:49:20.067Z</time>
      </trkpt>
      <trkpt lat="44.84472" lon="0.55326">
        <ele>81</ele>
        <time>2021-10-12T13:49:29.055Z</time>
      </trkpt>
      <trkpt lat="44.84479" lon="0.55323">
        <ele>81</ele>
        <time>2021-10-12T13:49:51.045Z</time>
      </trkpt>
      <trkpt lat="44.84479" lon="0.55323">
        <ele>81</ele>
        <time>2021-10-12T13:50:04.047Z</time>
      </trkpt>
      <trkpt lat="44.84482" lon="0.55322">
        <ele>80</ele>
        <time>2021-10-12T13:50:05.048Z</time>
      </trkpt>
      <trkpt lat="44.84486" lon="0.55309">
        <ele>80</ele>
        <time>2021-10-12T13:50:27.046Z</time>
      </trkpt>
      <trkpt lat="44.84486" lon="0.55296">
        <ele>80</ele>
        <time>2021-10-12T13:50:39.048Z</time>
      </trkpt>
      <trkpt lat="44.8448" lon="0.55285">
        <ele>80</ele>
        <time>2021-10-12T13:50:47.091Z</time>
      </trkpt>
      <trkpt lat="44.84475" lon="0.55274">
        <ele>80</ele>
        <time>2021-10-12T13:50:56.049Z</time>
      </trkpt>
      <trkpt lat="44.84471" lon="0.55261">
        <ele>80</ele>
        <time>2021-10-12T13:51:04.090Z</time>
      </trkpt>
      <trkpt lat="44.84468" lon="0.55248">
        <ele>80</ele>
        <time>2021-10-12T13:51:13.051Z</time>
      </trkpt>
      <trkpt lat="44.84464" lon="0.55234">
        <ele>80</ele>
        <time>2021-10-12T13:51:22.089Z</time>
      </trkpt>
      <trkpt lat="44.8446" lon="0.55221">
        <ele>80</ele>
        <time>2021-10-12T13:51:30.048Z</time>
      </trkpt>
      <trkpt lat="44.84457" lon="0.55207">
        <ele>80</ele>
        <time>2021-10-12T13:51:38.045Z</time>
      </trkpt>
      <trkpt lat="44.84455" lon="0.55194">
        <ele>80</ele>
        <time>2021-10-12T13:51:45.043Z</time>
      </trkpt>
      <trkpt lat="44.84451" lon="0.55181">
        <ele>80</ele>
        <time>2021-10-12T13:51:53.049Z</time>
      </trkpt>
      <trkpt lat="44.84447" lon="0.5517">
        <ele>80</ele>
        <time>2021-10-12T13:52:01.050Z</time>
      </trkpt>
      <trkpt lat="44.84444" lon="0.55156">
        <ele>79</ele>
        <time>2021-10-12T13:52:10.045Z</time>
      </trkpt>
      <trkpt lat="44.8444" lon="0.55145">
        <ele>80</ele>
        <time>2021-10-12T13:52:19.049Z</time>
      </trkpt>
      <trkpt lat="44.84437" lon="0.55133">
        <ele>80</ele>
        <time>2021-10-12T13:52:27.090Z</time>
      </trkpt>
      <trkpt lat="44.84434" lon="0.5512">
        <ele>80</ele>
        <time>2021-10-12T13:52:36.040Z</time>
      </trkpt>
      <trkpt lat="44.84432" lon="0.55107">
        <ele>80</ele>
        <time>2021-10-12T13:52:44.093Z</time>
      </trkpt>
      <trkpt lat="44.84428" lon="0.55093">
        <ele>80</ele>
        <time>2021-10-12T13:52:51.041Z</time>
      </trkpt>
      <trkpt lat="44.84424" lon="0.55082">
        <ele>80</ele>
        <time>2021-10-12T13:52:59.048Z</time>
      </trkpt>
      <trkpt lat="44.84421" lon="0.5507">
        <ele>80</ele>
        <time>2021-10-12T13:53:06.048Z</time>
      </trkpt>
      <trkpt lat="44.84417" lon="0.55057">
        <ele>79</ele>
        <time>2021-10-12T13:53:14.048Z</time>
      </trkpt>
      <trkpt lat="44.84413" lon="0.55044">
        <ele>79</ele>
        <time>2021-10-12T13:53:21.045Z</time>
      </trkpt>
      <trkpt lat="44.8441" lon="0.55032">
        <ele>79</ele>
        <time>2021-10-12T13:53:28.049Z</time>
      </trkpt>
      <trkpt lat="44.84407" lon="0.55019">
        <ele>79</ele>
        <time>2021-10-12T13:53:35.044Z</time>
      </trkpt>
      <trkpt lat="44.84404" lon="0.55006">
        <ele>79</ele>
        <time>2021-10-12T13:53:43.051Z</time>
      </trkpt>
      <trkpt lat="44.84401" lon="0.54993">
        <ele>79</ele>
        <time>2021-10-12T13:53:51.050Z</time>
      </trkpt>
      <trkpt lat="44.84398" lon="0.5498">
        <ele>79</ele>
        <time>2021-10-12T13:53:59.086Z</time>
      </trkpt>
      <trkpt lat="44.84394" lon="0.54967">
        <ele>79</ele>
        <time>2021-10-12T13:54:07.047Z</time>
      </trkpt>
      <trkpt lat="44.84391" lon="0.54954">
        <ele>79</ele>
        <time>2021-10-12T13:54:15.049Z</time>
      </trkpt>
      <trkpt lat="44.84388" lon="0.54942">
        <ele>80</ele>
        <time>2021-10-12T13:54:23.079Z</time>
      </trkpt>
      <trkpt lat="44.84384" lon="0.54929">
        <ele>80</ele>
        <time>2021-10-12T13:54:31.049Z</time>
      </trkpt>
      <trkpt lat="44.84381" lon="0.54916">
        <ele>80</ele>
        <time>2021-10-12T13:54:39.047Z</time>
      </trkpt>
      <trkpt lat="44.84378" lon="0.54903">
        <ele>80</ele>
        <time>2021-10-12T13:54:47.048Z</time>
      </trkpt>
      <trkpt lat="44.84376" lon="0.5489">
        <ele>80</ele>
        <time>2021-10-12T13:54:54.066Z</time>
      </trkpt>
      <trkpt lat="44.84372" lon="0.54877">
        <ele>80</ele>
        <time>2021-10-12T13:55:02.087Z</time>
      </trkpt>
      <trkpt lat="44.8437" lon="0.54864">
        <ele>80</ele>
        <time>2021-10-12T13:55:10.045Z</time>
      </trkpt>
      <trkpt lat="44.84369" lon="0.54851">
        <ele>80</ele>
        <time>2021-10-12T13:55:20.054Z</time>
      </trkpt>
      <trkpt lat="44.84369" lon="0.54838">
        <ele>80</ele>
        <time>2021-10-12T13:55:27.045Z</time>
      </trkpt>
      <trkpt lat="44.84371" lon="0.54824">
        <ele>80</ele>
        <time>2021-10-12T13:55:36.049Z</time>
      </trkpt>
      <trkpt lat="44.84374" lon="0.54811">
        <ele>80</ele>
        <time>2021-10-12T13:55:44.049Z</time>
      </trkpt>
      <trkpt lat="44.84374" lon="0.54799">
        <ele>80</ele>
        <time>2021-10-12T13:56:03.051Z</time>
      </trkpt>
      <trkpt lat="44.84374" lon="0.54799">
        <ele>80</ele>
        <time>2021-10-12T13:56:29.093Z</time>
      </trkpt>
      <trkpt lat="44.84371" lon="0.54801">
        <ele>80</ele>
        <time>2021-10-12T13:56:30.052Z</time>
      </trkpt>
      <trkpt lat="44.84366" lon="0.54813">
        <ele>80</ele>
        <time>2021-10-12T13:56:37.060Z</time>
      </trkpt>
      <trkpt lat="44.84361" lon="0.54826">
        <ele>79</ele>
        <time>2021-10-12T13:56:45.046Z</time>
      </trkpt>
      <trkpt lat="44.84359" lon="0.54839">
        <ele>79</ele>
        <time>2021-10-12T13:56:54.045Z</time>
      </trkpt>
      <trkpt lat="44.84358" lon="0.54852">
        <ele>79</ele>
        <time>2021-10-12T13:57:01.048Z</time>
      </trkpt>
      <trkpt lat="44.84354" lon="0.54864">
        <ele>79</ele>
        <time>2021-10-12T13:57:08.048Z</time>
      </trkpt>
      <trkpt lat="44.84346" lon="0.5487">
        <ele>79</ele>
        <time>2021-10-12T13:57:14.045Z</time>
      </trkpt>
      <trkpt lat="44.84336" lon="0.54873">
        <ele>79</ele>
        <time>2021-10-12T13:57:21.048Z</time>
      </trkpt>
      <trkpt lat="44.84326" lon="0.54873">
        <ele>79</ele>
        <time>2021-10-12T13:57:28.048Z</time>
      </trkpt>
      <trkpt lat="44.84317" lon="0.54875">
        <ele>79</ele>
        <time>2021-10-12T13:57:35.045Z</time>
      </trkpt>
      <trkpt lat="44.84308" lon="0.54876">
        <ele>79</ele>
        <time>2021-10-12T13:57:42.043Z</time>
      </trkpt>
      <trkpt lat="44.84297" lon="0.54877">
        <ele>79</ele>
        <time>2021-10-12T13:57:50.043Z</time>
      </trkpt>
      <trkpt lat="44.84288" lon="0.5488">
        <ele>79</ele>
        <time>2021-10-12T13:57:57.046Z</time>
      </trkpt>
      <trkpt lat="44.84281" lon="0.5487">
        <ele>79</ele>
        <time>2021-10-12T13:58:08.050Z</time>
      </trkpt>
      <trkpt lat="44.84275" lon="0.54859">
        <ele>80</ele>
        <time>2021-10-12T13:58:16.048Z</time>
      </trkpt>
      <trkpt lat="44.84271" lon="0.54847">
        <ele>80</ele>
        <time>2021-10-12T13:58:23.104Z</time>
      </trkpt>
      <trkpt lat="44.84266" lon="0.54836">
        <ele>81</ele>
        <time>2021-10-12T13:58:30.047Z</time>
      </trkpt>
      <trkpt lat="44.84262" lon="0.54823">
        <ele>81</ele>
        <time>2021-10-12T13:58:37.048Z</time>
      </trkpt>
      <trkpt lat="44.84258" lon="0.5481">
        <ele>82</ele>
        <time>2021-10-12T13:58:44.046Z</time>
      </trkpt>
      <trkpt lat="44.84254" lon="0.54798">
        <ele>83</ele>
        <time>2021-10-12T13:58:50.053Z</time>
      </trkpt>
      <trkpt lat="44.84251" lon="0.54786">
        <ele>83</ele>
        <time>2021-10-12T13:58:56.046Z</time>
      </trkpt>
      <trkpt lat="44.84249" lon="0.54773">
        <ele>84</ele>
        <time>2021-10-12T13:59:03.049Z</time>
      </trkpt>
      <trkpt lat="44.8425" lon="0.5476">
        <ele>85</ele>
        <time>2021-10-12T13:59:10.046Z</time>
      </trkpt>
      <trkpt lat="44.84251" lon="0.54746">
        <ele>86</ele>
        <time>2021-10-12T13:59:18.050Z</time>
      </trkpt>
      <trkpt lat="44.8425" lon="0.54732">
        <ele>86</ele>
        <time>2021-10-12T13:59:25.048Z</time>
      </trkpt>
      <trkpt lat="44.84247" lon="0.5472">
        <ele>86</ele>
        <time>2021-10-12T13:59:32.082Z</time>
      </trkpt>
      <trkpt lat="44.84244" lon="0.54707">
        <ele>87</ele>
        <time>2021-10-12T13:59:39.045Z</time>
      </trkpt>
      <trkpt lat="44.84239" lon="0.54696">
        <ele>87</ele>
        <time>2021-10-12T13:59:45.047Z</time>
      </trkpt>
      <trkpt lat="44.84236" lon="0.54683">
        <ele>87</ele>
        <time>2021-10-12T13:59:51.045Z</time>
      </trkpt>
      <trkpt lat="44.84234" lon="0.5467">
        <ele>87</ele>
        <time>2021-10-12T13:59:58.043Z</time>
      </trkpt>
      <trkpt lat="44.84231" lon="0.54656">
        <ele>87</ele>
        <time>2021-10-12T14:00:05.045Z</time>
      </trkpt>
      <trkpt lat="44.84228" lon="0.54644">
        <ele>87</ele>
        <time>2021-10-12T14:00:12.059Z</time>
      </trkpt>
      <trkpt lat="44.84225" lon="0.54631">
        <ele>87</ele>
        <time>2021-10-12T14:00:19.086Z</time>
      </trkpt>
      <trkpt lat="44.84223" lon="0.54616">
        <ele>87</ele>
        <time>2021-10-12T14:00:26.069Z</time>
      </trkpt>
      <trkpt lat="44.84216" lon="0.54626">
        <ele>86</ele>
        <time>2021-10-12T14:00:47.046Z</time>
      </trkpt>
      <trkpt lat="44.84216" lon="0.54639">
        <ele>86</ele>
        <time>2021-10-12T14:00:56.044Z</time>
      </trkpt>
      <trkpt lat="44.84219" lon="0.54652">
        <ele>86</ele>
        <time>2021-10-12T14:01:04.045Z</time>
      </trkpt>
      <trkpt lat="44.84221" lon="0.54662">
        <ele>86</ele>
        <time>2021-10-12T14:01:26.038Z</time>
      </trkpt>
      <trkpt lat="44.84221" lon="0.54662">
        <ele>38</ele>
        <time>2021-10-12T14:01:26.217Z</time>
      </trkpt>
    </trkseg>
  </trk>
</gpx>